<?xml version='1.0' encoding='UTF-8'?><gpx version="1.1" creator="JPX - https://github.com/jenetics/jpx" xmlns="http://www.topografix.com/GPX/1/1"><trk><trkseg><trkpt lat="45.7594063" lon="8.9683276"><ele>385.0</ele><time>2026-04-18T06:26:48.216Z</time></trkpt><trkpt lat="45.7594328" lon="8.9682359"><ele>385.0</ele><time>2026-04-18T06:26:57.376Z</time></trkpt><trkpt lat="45.7593736" lon="8.9682728"><ele>385.0</ele><time>2026-04-18T06:27:08.297Z</time></trkpt><trkpt lat="45.7593052" lon="8.9682857"><ele>385.0</ele><time>2026-04-18T06:27:13.302Z</time></trkpt><trkpt lat="45.759243" lon="8.9682997"><ele>385.0</ele><time>2026-04-18T06:27:17.312Z</time></trkpt><trkpt lat="45.7591787" lon="8.9683081"><ele>385.0</ele><time>2026-04-18T06:27:21.084Z</time></trkpt><trkpt lat="45.759118" lon="8.9683411"><ele>385.0</ele><time>2026-04-18T06:27:25.377Z</time></trkpt><trkpt lat="45.7590518" lon="8.968374"><ele>384.0</ele><time>2026-04-18T06:27:30.181Z</time></trkpt><trkpt lat="45.7589789" lon="8.9684228"><ele>383.0</ele><time>2026-04-18T06:27:35.403Z</time></trkpt><trkpt lat="45.7589137" lon="8.9684674"><ele>382.0</ele><time>2026-04-18T06:27:39.36Z</time></trkpt><trkpt lat="45.7588427" lon="8.9685077"><ele>381.0</ele><time>2026-04-18T06:27:43.322Z</time></trkpt><trkpt lat="45.758771" lon="8.9685349"><ele>380.0</ele><time>2026-04-18T06:27:47.332Z</time></trkpt><trkpt lat="45.7587046" lon="8.9685606"><ele>379.0</ele><time>2026-04-18T06:27:51.341Z</time></trkpt><trkpt lat="45.7586293" lon="8.9685785"><ele>378.0</ele><time>2026-04-18T06:27:55.352Z</time></trkpt><trkpt lat="45.7585545" lon="8.9685881"><ele>377.2857142857143</ele><time>2026-04-18T06:27:59.362Z</time></trkpt><trkpt lat="45.7584891" lon="8.9686036"><ele>376.57142857142856</ele><time>2026-04-18T06:28:03.372Z</time></trkpt><trkpt lat="45.7584177" lon="8.9686037"><ele>375.8571428571429</ele><time>2026-04-18T06:28:13.349Z</time></trkpt><trkpt lat="45.7583441" lon="8.9686077"><ele>375.1428571428571</ele><time>2026-04-18T06:28:19.375Z</time></trkpt><trkpt lat="45.7582751" lon="8.9686112"><ele>374.42857142857144</ele><time>2026-04-18T06:28:24.145Z</time></trkpt><trkpt lat="45.7582112" lon="8.9686128"><ele>373.7142857142857</ele><time>2026-04-18T06:28:29.28Z</time></trkpt><trkpt lat="45.758148" lon="8.9686013"><ele>373.0</ele><time>2026-04-18T06:28:34.316Z</time></trkpt><trkpt lat="45.7580788" lon="8.968585"><ele>373.0</ele><time>2026-04-18T06:28:40.28Z</time></trkpt><trkpt lat="45.7580115" lon="8.9685729"><ele>373.0</ele><time>2026-04-18T06:28:45.314Z</time></trkpt><trkpt lat="45.7579344" lon="8.9685458"><ele>373.0</ele><time>2026-04-18T06:29:01.354Z</time></trkpt><trkpt lat="45.7578719" lon="8.9685129"><ele>373.0</ele><time>2026-04-18T06:29:05.28Z</time></trkpt><trkpt lat="45.7578083" lon="8.9684848"><ele>373.0</ele><time>2026-04-18T06:29:09.374Z</time></trkpt><trkpt lat="45.7577502" lon="8.9684146"><ele>373.0</ele><time>2026-04-18T06:29:14.3Z</time></trkpt><trkpt lat="45.7577496" lon="8.9683221"><ele>373.0</ele><time>2026-04-18T06:29:18.31Z</time></trkpt><trkpt lat="45.75775" lon="8.9682094"><ele>373.7142857142857</ele><time>2026-04-18T06:29:23.351Z</time></trkpt><trkpt lat="45.7577463" lon="8.968107"><ele>374.42857142857144</ele><time>2026-04-18T06:29:27.361Z</time></trkpt><trkpt lat="45.7577438" lon="8.9680062"><ele>375.1428571428571</ele><time>2026-04-18T06:29:31.37Z</time></trkpt><trkpt lat="45.7577218" lon="8.9678992"><ele>375.8571428571429</ele><time>2026-04-18T06:29:35.38Z</time></trkpt><trkpt lat="45.7576999" lon="8.9678023"><ele>376.57142857142856</ele><time>2026-04-18T06:29:39.28Z</time></trkpt><trkpt lat="45.7576893" lon="8.9677094"><ele>377.2857142857143</ele><time>2026-04-18T06:29:43.285Z</time></trkpt><trkpt lat="45.7576751" lon="8.9676199"><ele>378.0</ele><time>2026-04-18T06:29:47.321Z</time></trkpt><trkpt lat="45.7576652" lon="8.967513"><ele>378.2857142857143</ele><time>2026-04-18T06:29:52.304Z</time></trkpt><trkpt lat="45.7576633" lon="8.9674092"><ele>378.57142857142856</ele><time>2026-04-18T06:29:57.336Z</time></trkpt><trkpt lat="45.7576606" lon="8.9673153"><ele>378.8571428571429</ele><time>2026-04-18T06:30:02.438Z</time></trkpt><trkpt lat="45.7576707" lon="8.9672202"><ele>379.1428571428571</ele><time>2026-04-18T06:30:08.375Z</time></trkpt><trkpt lat="45.7576765" lon="8.967114"><ele>379.42857142857144</ele><time>2026-04-18T06:30:14.282Z</time></trkpt><trkpt lat="45.7576472" lon="8.9670255"><ele>379.7142857142857</ele><time>2026-04-18T06:30:19.418Z</time></trkpt><trkpt lat="45.7575965" lon="8.9669616"><ele>380.0</ele><time>2026-04-18T06:30:24.62Z</time></trkpt><trkpt lat="45.7575282" lon="8.9669187"><ele>380.0</ele><time>2026-04-18T06:30:31.287Z</time></trkpt><trkpt lat="45.7574928" lon="8.9668282"><ele>380.0</ele><time>2026-04-18T06:30:37.337Z</time></trkpt><trkpt lat="45.7574468" lon="8.9667536"><ele>380.0</ele><time>2026-04-18T06:30:41.357Z</time></trkpt><trkpt lat="45.7574307" lon="8.9666502"><ele>380.0</ele><time>2026-04-18T06:30:47.3Z</time></trkpt><trkpt lat="45.7574551" lon="8.966554"><ele>380.0</ele><time>2026-04-18T06:30:53.283Z</time></trkpt><trkpt lat="45.7575239" lon="8.9665101"><ele>380.0</ele><time>2026-04-18T06:30:58.324Z</time></trkpt><trkpt lat="45.7575955" lon="8.9665057"><ele>380.0</ele><time>2026-04-18T06:31:04.281Z</time></trkpt><trkpt lat="45.7576597" lon="8.9664716"><ele>380.14285714285717</ele><time>2026-04-18T06:31:09.323Z</time></trkpt><trkpt lat="45.757666" lon="8.9663817"><ele>380.28571428571433</ele><time>2026-04-18T06:31:15.279Z</time></trkpt><trkpt lat="45.7576877" lon="8.9662868"><ele>380.42857142857144</ele><time>2026-04-18T06:31:23.257Z</time></trkpt><trkpt lat="45.7577045" lon="8.9661895"><ele>380.57142857142856</ele><time>2026-04-18T06:31:30.28Z</time></trkpt><trkpt lat="45.7577171" lon="8.9660973"><ele>380.7142857142857</ele><time>2026-04-18T06:31:36.358Z</time></trkpt><trkpt lat="45.7577322" lon="8.966001"><ele>380.85714285714283</ele><time>2026-04-18T06:31:43.346Z</time></trkpt><trkpt lat="45.7577271" lon="8.9658972"><ele>381.0</ele><time>2026-04-18T06:31:50.334Z</time></trkpt><trkpt lat="45.7577293" lon="8.9657943"><ele>381.7142857142857</ele><time>2026-04-18T06:31:57.322Z</time></trkpt><trkpt lat="45.7577475" lon="8.9656898"><ele>382.42857142857144</ele><time>2026-04-18T06:32:02.385Z</time></trkpt><trkpt lat="45.7577586" lon="8.9655986"><ele>383.14285714285717</ele><time>2026-04-18T06:32:08.261Z</time></trkpt><trkpt lat="45.7577293" lon="8.9655067"><ele>383.8571428571429</ele><time>2026-04-18T06:32:13.397Z</time></trkpt><trkpt lat="45.7577312" lon="8.965399"><ele>384.57142857142856</ele><time>2026-04-18T06:32:14.503Z</time></trkpt><trkpt lat="45.7577131" lon="8.9653047"><ele>385.28571428571433</ele><time>2026-04-18T06:32:18.742Z</time></trkpt><trkpt lat="45.7576568" lon="8.965253"><ele>386.0</ele><time>2026-04-18T06:32:26.496Z</time></trkpt><trkpt lat="45.7575999" lon="8.9653163"><ele>386.5714285714286</ele><time>2026-04-18T06:32:34.785Z</time></trkpt><trkpt lat="45.7575593" lon="8.9653909"><ele>387.14285714285717</ele><time>2026-04-18T06:32:40.923Z</time></trkpt><trkpt lat="45.7574989" lon="8.9654227"><ele>387.7142857142857</ele><time>2026-04-18T06:32:47.257Z</time></trkpt><trkpt lat="45.7574333" lon="8.9654354"><ele>388.28571428571433</ele><time>2026-04-18T06:32:52.311Z</time></trkpt><trkpt lat="45.7573688" lon="8.9654646"><ele>388.85714285714283</ele><time>2026-04-18T06:32:57.352Z</time></trkpt><trkpt lat="45.7572899" lon="8.9654759"><ele>389.42857142857144</ele><time>2026-04-18T06:33:02.281Z</time></trkpt><trkpt lat="45.757229" lon="8.9654499"><ele>390.0</ele><time>2026-04-18T06:33:05.302Z</time></trkpt><trkpt lat="45.7571702" lon="8.9654154"><ele>390.0</ele><time>2026-04-18T06:33:08.35Z</time></trkpt><trkpt lat="45.7571085" lon="8.9653845"><ele>390.0</ele><time>2026-04-18T06:33:19.347Z</time></trkpt><trkpt lat="45.7570448" lon="8.9653654"><ele>390.0</ele><time>2026-04-18T06:33:31.376Z</time></trkpt><trkpt lat="45.756971" lon="8.965317"><ele>390.0</ele><time>2026-04-18T06:35:21.378Z</time></trkpt><trkpt lat="45.7569382" lon="8.9652241"><ele>390.0</ele><time>2026-04-18T06:35:25.33Z</time></trkpt><trkpt lat="45.7569167" lon="8.9651353"><ele>390.0</ele><time>2026-04-18T06:35:30.257Z</time></trkpt><trkpt lat="45.7568958" lon="8.9650444"><ele>390.0</ele><time>2026-04-18T06:35:36.33Z</time></trkpt><trkpt lat="45.756884" lon="8.9649495"><ele>389.57142857142856</ele><time>2026-04-18T06:35:42.288Z</time></trkpt><trkpt lat="45.7568689" lon="8.9648536"><ele>389.1428571428571</ele><time>2026-04-18T06:35:51.341Z</time></trkpt><trkpt lat="45.7568268" lon="8.9647693"><ele>388.7142857142857</ele><time>2026-04-18T06:35:58.33Z</time></trkpt><trkpt lat="45.7568064" lon="8.9646762"><ele>388.2857142857143</ele><time>2026-04-18T06:36:03.372Z</time></trkpt><trkpt lat="45.7567435" lon="8.9646834"><ele>387.8571428571429</ele><time>2026-04-18T06:36:22.26Z</time></trkpt><trkpt lat="45.756697" lon="8.9647482"><ele>387.42857142857144</ele><time>2026-04-18T06:36:29.32Z</time></trkpt><trkpt lat="45.7566352" lon="8.9647697"><ele>387.0</ele><time>2026-04-18T06:36:35.942Z</time></trkpt><trkpt lat="45.7565713" lon="8.9647882"><ele>387.0</ele><time>2026-04-18T06:36:42.64Z</time></trkpt><trkpt lat="45.7565073" lon="8.9648465"><ele>387.0</ele><time>2026-04-18T06:36:47.639Z</time></trkpt><trkpt lat="45.7564426" lon="8.9648892"><ele>387.0</ele><time>2026-04-18T06:36:52.704Z</time></trkpt><trkpt lat="45.7563794" lon="8.9649185"><ele>387.0</ele><time>2026-04-18T06:36:56.16Z</time></trkpt><trkpt lat="45.7563209" lon="8.9649623"><ele>387.0</ele><time>2026-04-18T06:37:00.26Z</time></trkpt><trkpt lat="45.7562758" lon="8.9650313"><ele>387.0</ele><time>2026-04-18T06:37:05.358Z</time></trkpt><trkpt lat="45.7562226" lon="8.9651132"><ele>387.0</ele><time>2026-04-18T06:37:10.285Z</time></trkpt><trkpt lat="45.7561484" lon="8.9651539"><ele>386.7142857142857</ele><time>2026-04-18T06:37:14.178Z</time></trkpt><trkpt lat="45.7560893" lon="8.9652166"><ele>386.42857142857144</ele><time>2026-04-18T06:37:18.32Z</time></trkpt><trkpt lat="45.7560318" lon="8.9652827"><ele>386.1428571428571</ele><time>2026-04-18T06:37:22.315Z</time></trkpt><trkpt lat="45.7559663" lon="8.9653099"><ele>385.8571428571429</ele><time>2026-04-18T06:37:26.34Z</time></trkpt><trkpt lat="45.7558994" lon="8.9653512"><ele>385.57142857142856</ele><time>2026-04-18T06:37:32.282Z</time></trkpt><trkpt lat="45.7558355" lon="8.9654091"><ele>385.2857142857143</ele><time>2026-04-18T06:37:37.2Z</time></trkpt><trkpt lat="45.7557594" lon="8.965412"><ele>385.0</ele><time>2026-04-18T06:37:42.242Z</time></trkpt><trkpt lat="45.7556872" lon="8.9654307"><ele>384.85714285714283</ele><time>2026-04-18T06:37:47.36Z</time></trkpt><trkpt lat="45.7556242" lon="8.9654222"><ele>384.7142857142857</ele><time>2026-04-18T06:37:51.301Z</time></trkpt><trkpt lat="45.755546" lon="8.965425"><ele>384.57142857142856</ele><time>2026-04-18T06:37:56.343Z</time></trkpt><trkpt lat="45.7554712" lon="8.9654203"><ele>384.42857142857144</ele><time>2026-04-18T06:38:01.256Z</time></trkpt><trkpt lat="45.7554083" lon="8.9653768"><ele>384.2857142857143</ele><time>2026-04-18T06:38:07.343Z</time></trkpt><trkpt lat="45.7553548" lon="8.9653236"><ele>384.1428571428571</ele><time>2026-04-18T06:38:13.298Z</time></trkpt><trkpt lat="45.7552863" lon="8.9652741"><ele>384.0</ele><time>2026-04-18T06:38:18.339Z</time></trkpt><trkpt lat="45.7552202" lon="8.9652588"><ele>383.85714285714283</ele><time>2026-04-18T06:38:24.297Z</time></trkpt><trkpt lat="45.7551552" lon="8.9652465"><ele>383.7142857142857</ele><time>2026-04-18T06:38:31.286Z</time></trkpt><trkpt lat="45.7550976" lon="8.9652943"><ele>383.57142857142856</ele><time>2026-04-18T06:38:39.301Z</time></trkpt><trkpt lat="45.7550346" lon="8.9653534"><ele>383.42857142857144</ele><time>2026-04-18T06:38:44.243Z</time></trkpt><trkpt lat="45.7549839" lon="8.9654175"><ele>383.2857142857143</ele><time>2026-04-18T06:38:49.279Z</time></trkpt><trkpt lat="45.7549436" lon="8.9654936"><ele>383.1428571428571</ele><time>2026-04-18T06:38:54.313Z</time></trkpt><trkpt lat="45.7548894" lon="8.9655676"><ele>383.0</ele><time>2026-04-18T06:38:59.279Z</time></trkpt><trkpt lat="45.7548332" lon="8.9656224"><ele>383.0</ele><time>2026-04-18T06:39:04.281Z</time></trkpt><trkpt lat="45.7547829" lon="8.9656956"><ele>383.0</ele><time>2026-04-18T06:39:08.382Z</time></trkpt><trkpt lat="45.754723" lon="8.9657733"><ele>383.0</ele><time>2026-04-18T06:39:12.299Z</time></trkpt><trkpt lat="45.7546766" lon="8.9658456"><ele>383.0</ele><time>2026-04-18T06:39:16.309Z</time></trkpt><trkpt lat="45.7546293" lon="8.9659175"><ele>383.0</ele><time>2026-04-18T06:39:21.35Z</time></trkpt><trkpt lat="45.7545659" lon="8.9659866"><ele>383.0</ele><time>2026-04-18T06:39:27.307Z</time></trkpt><trkpt lat="45.7545072" lon="8.9660576"><ele>383.0</ele><time>2026-04-18T06:39:31.317Z</time></trkpt><trkpt lat="45.7544497" lon="8.9660967"><ele>382.7142857142857</ele><time>2026-04-18T06:39:39.1Z</time></trkpt><trkpt lat="45.7543897" lon="8.9661539"><ele>382.42857142857144</ele><time>2026-04-18T06:39:52.04Z</time></trkpt><trkpt lat="45.7543223" lon="8.9660983"><ele>382.1428571428571</ele><time>2026-04-18T06:40:01.076Z</time></trkpt><trkpt lat="45.7542888" lon="8.9660178"><ele>381.8571428571429</ele><time>2026-04-18T06:40:05.181Z</time></trkpt><trkpt lat="45.7542554" lon="8.9659324"><ele>381.5714285714286</ele><time>2026-04-18T06:40:10.384Z</time></trkpt><trkpt lat="45.754224" lon="8.965851"><ele>381.2857142857143</ele><time>2026-04-18T06:40:14.28Z</time></trkpt><trkpt lat="45.7541947" lon="8.9657635"><ele>381.0</ele><time>2026-04-18T06:40:19.358Z</time></trkpt><trkpt lat="45.7541616" lon="8.9656652"><ele>381.0</ele><time>2026-04-18T06:40:25.281Z</time></trkpt><trkpt lat="45.7541332" lon="8.9655783"><ele>381.0</ele><time>2026-04-18T06:40:29.344Z</time></trkpt><trkpt lat="45.7541225" lon="8.9654868"><ele>381.0</ele><time>2026-04-18T06:40:34.656Z</time></trkpt><trkpt lat="45.7541125" lon="8.9653936"><ele>381.0</ele><time>2026-04-18T06:40:38.761Z</time></trkpt><trkpt lat="45.7541009" lon="8.965296"><ele>381.0</ele><time>2026-04-18T06:40:42.98Z</time></trkpt><trkpt lat="45.7540997" lon="8.9651908"><ele>381.0</ele><time>2026-04-18T06:40:47.105Z</time></trkpt><trkpt lat="45.7540976" lon="8.9650856"><ele>381.0</ele><time>2026-04-18T06:40:52.299Z</time></trkpt><trkpt lat="45.75409" lon="8.9649767"><ele>382.0</ele><time>2026-04-18T06:40:58.278Z</time></trkpt><trkpt lat="45.7540783" lon="8.96487"><ele>383.0</ele><time>2026-04-18T06:41:03.279Z</time></trkpt><trkpt lat="45.7540717" lon="8.9647617"><ele>384.0</ele><time>2026-04-18T06:41:07.279Z</time></trkpt><trkpt lat="45.75407" lon="8.9646583"><ele>385.0</ele><time>2026-04-18T06:41:11.279Z</time></trkpt><trkpt lat="45.7540169" lon="8.9645964"><ele>386.0</ele><time>2026-04-18T06:41:16.368Z</time></trkpt><trkpt lat="45.7539642" lon="8.9645418"><ele>387.0</ele><time>2026-04-18T06:41:23.3Z</time></trkpt><trkpt lat="45.753903" lon="8.9645066"><ele>388.0</ele><time>2026-04-18T06:41:26.335Z</time></trkpt><trkpt lat="45.7538317" lon="8.9645018"><ele>388.0</ele><time>2026-04-18T06:41:30.344Z</time></trkpt><trkpt lat="45.7537577" lon="8.9645448"><ele>388.0</ele><time>2026-04-18T06:41:35.279Z</time></trkpt><trkpt lat="45.7536975" lon="8.964606"><ele>388.0</ele><time>2026-04-18T06:41:40.379Z</time></trkpt><trkpt lat="45.7536387" lon="8.964669"><ele>388.0</ele><time>2026-04-18T06:41:45.351Z</time></trkpt><trkpt lat="45.7535832" lon="8.9647223"><ele>388.0</ele><time>2026-04-18T06:41:50.28Z</time></trkpt><trkpt lat="45.7535239" lon="8.9647797"><ele>388.0</ele><time>2026-04-18T06:41:55.276Z</time></trkpt><trkpt lat="45.7534569" lon="8.9648275"><ele>388.0</ele><time>2026-04-18T06:42:00.358Z</time></trkpt><trkpt lat="45.7533962" lon="8.964879"><ele>388.33333333333337</ele><time>2026-04-18T06:42:05.284Z</time></trkpt><trkpt lat="45.7533327" lon="8.9649405"><ele>388.6666666666667</ele><time>2026-04-18T06:42:10.302Z</time></trkpt><trkpt lat="45.7532709" lon="8.9650004"><ele>389.0</ele><time>2026-04-18T06:42:15.384Z</time></trkpt><trkpt lat="45.7532027" lon="8.9650392"><ele>389.33333333333337</ele><time>2026-04-18T06:42:19.468Z</time></trkpt><trkpt lat="45.753135" lon="8.9650849"><ele>389.6666666666667</ele><time>2026-04-18T06:42:23.52Z</time></trkpt><trkpt lat="45.7530794" lon="8.9651668"><ele>390.0</ele><time>2026-04-18T06:42:29.759Z</time></trkpt><trkpt lat="45.7530232" lon="8.9652546"><ele>390.1428571428571</ele><time>2026-04-18T06:42:34.903Z</time></trkpt><trkpt lat="45.7529717" lon="8.9653318"><ele>390.2857142857143</ele><time>2026-04-18T06:42:39.018Z</time></trkpt><trkpt lat="45.752916" lon="8.9653755"><ele>390.42857142857144</ele><time>2026-04-18T06:42:42.999Z</time></trkpt><trkpt lat="45.7528563" lon="8.9654451"><ele>390.57142857142856</ele><time>2026-04-18T06:42:48.063Z</time></trkpt><trkpt lat="45.7528247" lon="8.9655258"><ele>390.7142857142857</ele><time>2026-04-18T06:42:52.12Z</time></trkpt><trkpt lat="45.7528108" lon="8.9656142"><ele>390.85714285714283</ele><time>2026-04-18T06:42:56.157Z</time></trkpt><trkpt lat="45.7527981" lon="8.9657033"><ele>391.0</ele><time>2026-04-18T06:43:01.265Z</time></trkpt><trkpt lat="45.7527866" lon="8.9658157"><ele>391.2857142857143</ele><time>2026-04-18T06:43:06.363Z</time></trkpt><trkpt lat="45.7527596" lon="8.9659098"><ele>391.57142857142856</ele><time>2026-04-18T06:43:10.35Z</time></trkpt><trkpt lat="45.7527192" lon="8.9659878"><ele>391.8571428571429</ele><time>2026-04-18T06:43:14.359Z</time></trkpt><trkpt lat="45.7526746" lon="8.9660782"><ele>392.1428571428571</ele><time>2026-04-18T06:43:19.285Z</time></trkpt><trkpt lat="45.7526263" lon="8.9661545"><ele>392.42857142857144</ele><time>2026-04-18T06:43:23.294Z</time></trkpt><trkpt lat="45.7525723" lon="8.966224"><ele>392.7142857142857</ele><time>2026-04-18T06:43:27.303Z</time></trkpt><trkpt lat="45.7525019" lon="8.9662726"><ele>393.0</ele><time>2026-04-18T06:43:32.343Z</time></trkpt><trkpt lat="45.7524282" lon="8.9663015"><ele>393.00000000000006</ele><time>2026-04-18T06:43:37.279Z</time></trkpt><trkpt lat="45.7523578" lon="8.9663183"><ele>393.0</ele><time>2026-04-18T06:43:42.259Z</time></trkpt><trkpt lat="45.7522887" lon="8.9663361"><ele>393.0</ele><time>2026-04-18T06:43:47.342Z</time></trkpt><trkpt lat="45.7522141" lon="8.9663734"><ele>393.0</ele><time>2026-04-18T06:43:52.378Z</time></trkpt><trkpt lat="45.7521363" lon="8.9663919"><ele>393.0</ele><time>2026-04-18T06:43:57.315Z</time></trkpt><trkpt lat="45.7520694" lon="8.966405"><ele>393.00000000000006</ele><time>2026-04-18T06:44:01.435Z</time></trkpt><trkpt lat="45.7520091" lon="8.9664512"><ele>393.0</ele><time>2026-04-18T06:44:06.364Z</time></trkpt><trkpt lat="45.7519416" lon="8.9664871"><ele>393.00000000000006</ele><time>2026-04-18T06:44:11.289Z</time></trkpt><trkpt lat="45.7518804" lon="8.9665228"><ele>393.0</ele><time>2026-04-18T06:44:16.279Z</time></trkpt><trkpt lat="45.7518245" lon="8.966566"><ele>393.0</ele><time>2026-04-18T06:44:20.338Z</time></trkpt><trkpt lat="45.7517684" lon="8.9666158"><ele>393.0</ele><time>2026-04-18T06:44:24.348Z</time></trkpt><trkpt lat="45.7517149" lon="8.9666856"><ele>393.0</ele><time>2026-04-18T06:44:29.019Z</time></trkpt><trkpt lat="45.7516722" lon="8.9667524"><ele>393.00000000000006</ele><time>2026-04-18T06:44:33.282Z</time></trkpt><trkpt lat="45.7516036" lon="8.9667765"><ele>393.0</ele><time>2026-04-18T06:44:38.319Z</time></trkpt><trkpt lat="45.7515356" lon="8.9668178"><ele>392.28571428571433</ele><time>2026-04-18T06:44:43.362Z</time></trkpt><trkpt lat="45.7514905" lon="8.9669093"><ele>391.57142857142856</ele><time>2026-04-18T06:44:48.288Z</time></trkpt><trkpt lat="45.7514335" lon="8.9669858"><ele>390.8571428571429</ele><time>2026-04-18T06:44:53.278Z</time></trkpt><trkpt lat="45.7513761" lon="8.9670454"><ele>390.14285714285717</ele><time>2026-04-18T06:44:58.379Z</time></trkpt><trkpt lat="45.7513285" lon="8.9671259"><ele>389.42857142857144</ele><time>2026-04-18T06:45:04.323Z</time></trkpt><trkpt lat="45.7512889" lon="8.9672115"><ele>388.7142857142857</ele><time>2026-04-18T06:45:09.363Z</time></trkpt><trkpt lat="45.7512441" lon="8.9672855"><ele>388.0</ele><time>2026-04-18T06:45:13.372Z</time></trkpt><trkpt lat="45.7511999" lon="8.9673687"><ele>388.00000000000006</ele><time>2026-04-18T06:45:18.2Z</time></trkpt><trkpt lat="45.7511512" lon="8.9674378"><ele>388.0</ele><time>2026-04-18T06:45:22.906Z</time></trkpt><trkpt lat="45.7510764" lon="8.9674758"><ele>388.0</ele><time>2026-04-18T06:45:28.016Z</time></trkpt><trkpt lat="45.7510057" lon="8.9675045"><ele>388.0</ele><time>2026-04-18T06:45:32.045Z</time></trkpt><trkpt lat="45.750883" lon="8.9675117"><ele>388.00000000000006</ele><time>2026-04-18T06:45:37.099Z</time></trkpt><trkpt lat="45.7508127" lon="8.9675017"><ele>388.0</ele><time>2026-04-18T06:45:40.06Z</time></trkpt><trkpt lat="45.7507445" lon="8.9675137"><ele>386.0</ele><time>2026-04-18T06:45:43.203Z</time></trkpt><trkpt lat="45.7506626" lon="8.9675391"><ele>384.0</ele><time>2026-04-18T06:45:47.263Z</time></trkpt><trkpt lat="45.7505997" lon="8.96756"><ele>382.0</ele><time>2026-04-18T06:45:51.06Z</time></trkpt><trkpt lat="45.7505412" lon="8.9676229"><ele>380.0</ele><time>2026-04-18T06:45:55.702Z</time></trkpt><trkpt lat="45.7504851" lon="8.9676677"><ele>378.0</ele><time>2026-04-18T06:46:04.364Z</time></trkpt><trkpt lat="45.7504213" lon="8.9676885"><ele>376.0</ele><time>2026-04-18T06:46:10.196Z</time></trkpt><trkpt lat="45.7503575" lon="8.9677087"><ele>374.0</ele><time>2026-04-18T06:46:15.098Z</time></trkpt><trkpt lat="45.7502909" lon="8.9677285"><ele>374.0</ele><time>2026-04-18T06:46:21.344Z</time></trkpt><trkpt lat="45.7502292" lon="8.9677713"><ele>374.0</ele><time>2026-04-18T06:46:29.313Z</time></trkpt><trkpt lat="45.7501795" lon="8.9678399"><ele>374.0</ele><time>2026-04-18T06:46:39.279Z</time></trkpt><trkpt lat="45.7501278" lon="8.9678982"><ele>374.0</ele><time>2026-04-18T06:46:45.348Z</time></trkpt><trkpt lat="45.7500473" lon="8.9679419"><ele>374.0</ele><time>2026-04-18T06:46:50.281Z</time></trkpt><trkpt lat="45.7499753" lon="8.9679731"><ele>374.0</ele><time>2026-04-18T06:46:55.313Z</time></trkpt><trkpt lat="45.7499126" lon="8.9680094"><ele>374.0</ele><time>2026-04-18T06:47:00.354Z</time></trkpt><trkpt lat="45.7498432" lon="8.9679875"><ele>372.7142857142857</ele><time>2026-04-18T06:47:07.386Z</time></trkpt><trkpt lat="45.7497774" lon="8.968006"><ele>371.42857142857144</ele><time>2026-04-18T06:47:13.296Z</time></trkpt><trkpt lat="45.7497307" lon="8.9680674"><ele>370.14285714285717</ele><time>2026-04-18T06:47:20.283Z</time></trkpt><trkpt lat="45.7496615" lon="8.96812"><ele>368.8571428571429</ele><time>2026-04-18T06:47:26.279Z</time></trkpt><trkpt lat="45.749593" lon="8.9681378"><ele>367.57142857142856</ele><time>2026-04-18T06:47:32.34Z</time></trkpt><trkpt lat="45.7495341" lon="8.9681923"><ele>366.28571428571433</ele><time>2026-04-18T06:47:38.324Z</time></trkpt><trkpt lat="45.749483" lon="8.9682483"><ele>365.0</ele><time>2026-04-18T06:47:42.362Z</time></trkpt><trkpt lat="45.7494161" lon="8.9683003"><ele>364.8571428571429</ele><time>2026-04-18T06:47:47.314Z</time></trkpt><trkpt lat="45.7493605" lon="8.9683527"><ele>364.7142857142857</ele><time>2026-04-18T06:47:51.323Z</time></trkpt><trkpt lat="45.7493103" lon="8.9684302"><ele>364.57142857142856</ele><time>2026-04-18T06:47:56.203Z</time></trkpt><trkpt lat="45.7492718" lon="8.9685085"><ele>364.42857142857144</ele><time>2026-04-18T06:48:00.378Z</time></trkpt><trkpt lat="45.74925" lon="8.9686151"><ele>364.2857142857143</ele><time>2026-04-18T06:48:06.3Z</time></trkpt><trkpt lat="45.7492097" lon="8.968693"><ele>364.14285714285717</ele><time>2026-04-18T06:48:12.258Z</time></trkpt><trkpt lat="45.749147" lon="8.9687541"><ele>364.0</ele><time>2026-04-18T06:48:16.238Z</time></trkpt><trkpt lat="45.7490764" lon="8.9687885"><ele>365.42857142857144</ele><time>2026-04-18T06:48:20.288Z</time></trkpt><trkpt lat="45.7490091" lon="8.9688329"><ele>366.8571428571429</ele><time>2026-04-18T06:48:25.358Z</time></trkpt><trkpt lat="45.7489559" lon="8.9688927"><ele>368.2857142857143</ele><time>2026-04-18T06:48:30.382Z</time></trkpt><trkpt lat="45.7489008" lon="8.968957"><ele>369.7142857142857</ele><time>2026-04-18T06:48:35.365Z</time></trkpt><trkpt lat="45.7488475" lon="8.9690147"><ele>371.14285714285717</ele><time>2026-04-18T06:48:39.314Z</time></trkpt><trkpt lat="45.748784" lon="8.9690727"><ele>372.57142857142856</ele><time>2026-04-18T06:48:43.323Z</time></trkpt><trkpt lat="45.7487173" lon="8.9691035"><ele>374.0</ele><time>2026-04-18T06:48:47.332Z</time></trkpt><trkpt lat="45.7486502" lon="8.9691131"><ele>374.0</ele><time>2026-04-18T06:48:51.34Z</time></trkpt><trkpt lat="45.7485876" lon="8.9691431"><ele>374.0</ele><time>2026-04-18T06:48:56.28Z</time></trkpt><trkpt lat="45.7485141" lon="8.9691877"><ele>374.0</ele><time>2026-04-18T06:49:02.336Z</time></trkpt><trkpt lat="45.748447" lon="8.9692026"><ele>374.0</ele><time>2026-04-18T06:49:05.314Z</time></trkpt><trkpt lat="45.7483879" lon="8.9692369"><ele>374.0</ele><time>2026-04-18T06:49:09.323Z</time></trkpt><trkpt lat="45.7483238" lon="8.969267"><ele>374.0</ele><time>2026-04-18T06:49:12.264Z</time></trkpt><trkpt lat="45.7482623" lon="8.9692965"><ele>374.0</ele><time>2026-04-18T06:49:16.217Z</time></trkpt><trkpt lat="45.7481819" lon="8.9693087"><ele>374.0</ele><time>2026-04-18T06:49:20.244Z</time></trkpt><trkpt lat="45.7481045" lon="8.9693067"><ele>374.0</ele><time>2026-04-18T06:49:23.262Z</time></trkpt><trkpt lat="45.7480247" lon="8.9693011"><ele>374.0</ele><time>2026-04-18T06:49:27.262Z</time></trkpt><trkpt lat="45.7479041" lon="8.9692901"><ele>374.0</ele><time>2026-04-18T06:49:30.257Z</time></trkpt><trkpt lat="45.7478322" lon="8.9692944"><ele>374.0</ele><time>2026-04-18T06:49:32.261Z</time></trkpt><trkpt lat="45.7477688" lon="8.9693018"><ele>374.0</ele><time>2026-04-18T06:49:35.277Z</time></trkpt><trkpt lat="45.747694" lon="8.9693024"><ele>374.0</ele><time>2026-04-18T06:49:40.32Z</time></trkpt><trkpt lat="45.7476249" lon="8.9693423"><ele>374.0</ele><time>2026-04-18T06:49:45.366Z</time></trkpt><trkpt lat="45.7475582" lon="8.969377"><ele>374.0</ele><time>2026-04-18T06:49:49.38Z</time></trkpt><trkpt lat="45.7474918" lon="8.9694325"><ele>374.0</ele><time>2026-04-18T06:49:53.304Z</time></trkpt><trkpt lat="45.7474264" lon="8.9694921"><ele>374.0</ele><time>2026-04-18T06:49:57.313Z</time></trkpt><trkpt lat="45.7473759" lon="8.9695612"><ele>374.0</ele><time>2026-04-18T06:50:01.207Z</time></trkpt><trkpt lat="45.7473281" lon="8.969625"><ele>374.0</ele><time>2026-04-18T06:50:05.33Z</time></trkpt><trkpt lat="45.7472835" lon="8.9696969"><ele>374.0</ele><time>2026-04-18T06:50:09.339Z</time></trkpt><trkpt lat="45.7472383" lon="8.9697648"><ele>374.0</ele><time>2026-04-18T06:50:14.378Z</time></trkpt><trkpt lat="45.7471958" lon="8.9698479"><ele>374.0</ele><time>2026-04-18T06:50:19.339Z</time></trkpt><trkpt lat="45.7471345" lon="8.9699068"><ele>374.0</ele><time>2026-04-18T06:50:24.344Z</time></trkpt><trkpt lat="45.747058" lon="8.9699274"><ele>374.0</ele><time>2026-04-18T06:50:29.524Z</time></trkpt><trkpt lat="45.746983" lon="8.969961"><ele>374.0</ele><time>2026-04-18T06:50:34.682Z</time></trkpt><trkpt lat="45.7469174" lon="8.9699794"><ele>374.0</ele><time>2026-04-18T06:50:38.757Z</time></trkpt><trkpt lat="45.7468457" lon="8.969991"><ele>372.7142857142857</ele><time>2026-04-18T06:50:43.281Z</time></trkpt><trkpt lat="45.7467874" lon="8.9700256"><ele>371.42857142857144</ele><time>2026-04-18T06:50:48.28Z</time></trkpt><trkpt lat="45.7467181" lon="8.9700388"><ele>370.14285714285717</ele><time>2026-04-18T06:50:53.401Z</time></trkpt><trkpt lat="45.7466508" lon="8.9700524"><ele>368.8571428571429</ele><time>2026-04-18T06:50:56.901Z</time></trkpt><trkpt lat="45.7465707" lon="8.9700515"><ele>367.57142857142856</ele><time>2026-04-18T06:51:01.321Z</time></trkpt><trkpt lat="45.7465065" lon="8.9700483"><ele>366.28571428571433</ele><time>2026-04-18T06:51:05.325Z</time></trkpt><trkpt lat="45.7464309" lon="8.9700596"><ele>365.0</ele><time>2026-04-18T06:51:10.345Z</time></trkpt><trkpt lat="45.7463697" lon="8.9700816"><ele>365.0</ele><time>2026-04-18T06:51:14.281Z</time></trkpt><trkpt lat="45.7462961" lon="8.9701078"><ele>365.0</ele><time>2026-04-18T06:51:19.319Z</time></trkpt><trkpt lat="45.7462364" lon="8.9701439"><ele>365.0</ele><time>2026-04-18T06:51:23.378Z</time></trkpt><trkpt lat="45.7461752" lon="8.9702085"><ele>365.0</ele><time>2026-04-18T06:51:27.336Z</time></trkpt><trkpt lat="45.7460857" lon="8.9702676"><ele>365.0</ele><time>2026-04-18T06:51:53.338Z</time></trkpt><trkpt lat="45.7460139" lon="8.9702754"><ele>365.0</ele><time>2026-04-18T06:51:57.365Z</time></trkpt><trkpt lat="45.7459409" lon="8.9702928"><ele>364.8571428571429</ele><time>2026-04-18T06:52:01.279Z</time></trkpt><trkpt lat="45.7458768" lon="8.9703292"><ele>364.7142857142857</ele><time>2026-04-18T06:52:05.339Z</time></trkpt><trkpt lat="45.7458205" lon="8.97037"><ele>364.57142857142856</ele><time>2026-04-18T06:52:09.243Z</time></trkpt><trkpt lat="45.7457586" lon="8.9704063"><ele>364.42857142857144</ele><time>2026-04-18T06:52:13.219Z</time></trkpt><trkpt lat="45.7456895" lon="8.9704572"><ele>364.2857142857143</ele><time>2026-04-18T06:52:18.282Z</time></trkpt><trkpt lat="45.7456031" lon="8.9704946"><ele>364.14285714285717</ele><time>2026-04-18T06:52:23.177Z</time></trkpt><trkpt lat="45.7455299" lon="8.9705096"><ele>364.0</ele><time>2026-04-18T06:52:28.179Z</time></trkpt><trkpt lat="45.7454654" lon="8.9705253"><ele>364.0</ele><time>2026-04-18T06:52:32.184Z</time></trkpt><trkpt lat="45.7454014" lon="8.9705604"><ele>364.0</ele><time>2026-04-18T06:52:36.24Z</time></trkpt><trkpt lat="45.7453343" lon="8.9706022"><ele>364.0</ele><time>2026-04-18T06:52:41.324Z</time></trkpt><trkpt lat="45.7452699" lon="8.9706273"><ele>364.0</ele><time>2026-04-18T06:52:45.333Z</time></trkpt><trkpt lat="45.7451958" lon="8.9706637"><ele>364.0</ele><time>2026-04-18T06:52:49.341Z</time></trkpt><trkpt lat="45.7451272" lon="8.9706741"><ele>364.0</ele><time>2026-04-18T06:52:53.35Z</time></trkpt><trkpt lat="45.7450612" lon="8.9706493"><ele>364.0</ele><time>2026-04-18T06:53:00.336Z</time></trkpt><trkpt lat="45.7450038" lon="8.9705938"><ele>363.42857142857144</ele><time>2026-04-18T06:53:05.376Z</time></trkpt><trkpt lat="45.7449517" lon="8.9705289"><ele>362.8571428571429</ele><time>2026-04-18T06:53:09.139Z</time></trkpt><trkpt lat="45.7448924" lon="8.9704634"><ele>362.2857142857143</ele><time>2026-04-18T06:53:13.281Z</time></trkpt><trkpt lat="45.7448398" lon="8.9704"><ele>361.7142857142857</ele><time>2026-04-18T06:53:17.236Z</time></trkpt><trkpt lat="45.7447868" lon="8.9703412"><ele>361.14285714285717</ele><time>2026-04-18T06:53:21.178Z</time></trkpt><trkpt lat="45.7447189" lon="8.9702931"><ele>360.57142857142856</ele><time>2026-04-18T06:53:25.382Z</time></trkpt><trkpt lat="45.7446518" lon="8.9702755"><ele>360.0</ele><time>2026-04-18T06:53:29.377Z</time></trkpt><trkpt lat="45.7445833" lon="8.9702669"><ele>360.0</ele><time>2026-04-18T06:53:33.263Z</time></trkpt><trkpt lat="45.7445138" lon="8.9702537"><ele>360.0</ele><time>2026-04-18T06:53:37.376Z</time></trkpt><trkpt lat="45.7444459" lon="8.9702486"><ele>360.0</ele><time>2026-04-18T06:53:41.34Z</time></trkpt><trkpt lat="45.7443799" lon="8.9702581"><ele>360.0</ele><time>2026-04-18T06:53:45.318Z</time></trkpt><trkpt lat="45.7443159" lon="8.9702584"><ele>360.0</ele><time>2026-04-18T06:53:49.361Z</time></trkpt><trkpt lat="45.7442475" lon="8.9702708"><ele>360.0</ele><time>2026-04-18T06:53:53.359Z</time></trkpt><trkpt lat="45.7441738" lon="8.9702943"><ele>360.0</ele><time>2026-04-18T06:53:58.337Z</time></trkpt><trkpt lat="45.7441005" lon="8.9703316"><ele>359.1428571428571</ele><time>2026-04-18T06:54:03.361Z</time></trkpt><trkpt lat="45.7440385" lon="8.9703501"><ele>358.28571428571433</ele><time>2026-04-18T06:54:07.398Z</time></trkpt><trkpt lat="45.7439747" lon="8.9703664"><ele>357.42857142857144</ele><time>2026-04-18T06:54:11.348Z</time></trkpt><trkpt lat="45.7439117" lon="8.9703769"><ele>356.57142857142856</ele><time>2026-04-18T06:54:15.357Z</time></trkpt><trkpt lat="45.7438476" lon="8.9703869"><ele>355.71428571428567</ele><time>2026-04-18T06:54:19.366Z</time></trkpt><trkpt lat="45.7437781" lon="8.9703848"><ele>354.8571428571429</ele><time>2026-04-18T06:54:23.374Z</time></trkpt><trkpt lat="45.7437114" lon="8.9703854"><ele>354.0</ele><time>2026-04-18T06:54:27.28Z</time></trkpt><trkpt lat="45.7436342" lon="8.9703934"><ele>354.0</ele><time>2026-04-18T06:54:32.307Z</time></trkpt><trkpt lat="45.7435565" lon="8.9703975"><ele>354.0</ele><time>2026-04-18T06:54:37.347Z</time></trkpt><trkpt lat="45.7434918" lon="8.9703887"><ele>354.0</ele><time>2026-04-18T06:54:41.356Z</time></trkpt><trkpt lat="45.7434267" lon="8.9703801"><ele>354.0</ele><time>2026-04-18T06:54:45.161Z</time></trkpt><trkpt lat="45.7433629" lon="8.9703873"><ele>354.0</ele><time>2026-04-18T06:54:49.184Z</time></trkpt><trkpt lat="45.7432894" lon="8.9704134"><ele>354.0</ele><time>2026-04-18T06:54:54.338Z</time></trkpt><trkpt lat="45.7432139" lon="8.9704266"><ele>354.0</ele><time>2026-04-18T06:54:59.397Z</time></trkpt><trkpt lat="45.7431501" lon="8.9704806"><ele>354.0</ele><time>2026-04-18T06:55:04.281Z</time></trkpt><trkpt lat="45.7431149" lon="8.9705636"><ele>354.0</ele><time>2026-04-18T06:55:09.301Z</time></trkpt><trkpt lat="45.743077" lon="8.9706395"><ele>354.0</ele><time>2026-04-18T06:55:14.341Z</time></trkpt><trkpt lat="45.7430525" lon="8.9707321"><ele>354.0</ele><time>2026-04-18T06:55:21.278Z</time></trkpt><trkpt lat="45.7430173" lon="8.9708243"><ele>354.0</ele><time>2026-04-18T06:55:27.238Z</time></trkpt><trkpt lat="45.7429501" lon="8.9708179"><ele>354.0</ele><time>2026-04-18T06:55:35.398Z</time></trkpt><trkpt lat="45.7429398" lon="8.9707286"><ele>354.0</ele><time>2026-04-18T06:55:40.339Z</time></trkpt><trkpt lat="45.7429688" lon="8.9706436"><ele>354.0</ele><time>2026-04-18T06:55:45.379Z</time></trkpt><trkpt lat="45.7429771" lon="8.9705452"><ele>354.0</ele><time>2026-04-18T06:55:52.365Z</time></trkpt><trkpt lat="45.7429229" lon="8.9704912"><ele>354.0</ele><time>2026-04-18T06:55:59.221Z</time></trkpt><trkpt lat="45.7428554" lon="8.9705003"><ele>354.0</ele><time>2026-04-18T06:56:07.369Z</time></trkpt><trkpt lat="45.7427968" lon="8.9705418"><ele>354.0</ele><time>2026-04-18T06:56:14.355Z</time></trkpt><trkpt lat="45.7427393" lon="8.970591"><ele>354.0</ele><time>2026-04-18T06:56:21.258Z</time></trkpt><trkpt lat="45.7427124" lon="8.9706764"><ele>354.0</ele><time>2026-04-18T06:56:28.217Z</time></trkpt><trkpt lat="45.7426817" lon="8.9707924"><ele>355.0</ele><time>2026-04-18T06:56:45.439Z</time></trkpt><trkpt lat="45.7426676" lon="8.9708837"><ele>356.0</ele><time>2026-04-18T06:56:49.525Z</time></trkpt><trkpt lat="45.7426805" lon="8.9710181"><ele>357.0</ele><time>2026-04-18T06:56:53.297Z</time></trkpt><trkpt lat="45.7426658" lon="8.971112"><ele>358.0</ele><time>2026-04-18T06:56:56.279Z</time></trkpt><trkpt lat="45.7426409" lon="8.9712043"><ele>359.0</ele><time>2026-04-18T06:57:00.398Z</time></trkpt><trkpt lat="45.7425993" lon="8.9712783"><ele>360.0</ele><time>2026-04-18T06:57:04.292Z</time></trkpt><trkpt lat="45.7425321" lon="8.9713191"><ele>361.0</ele><time>2026-04-18T06:57:08.2Z</time></trkpt><trkpt lat="45.7424589" lon="8.9713412"><ele>361.0</ele><time>2026-04-18T06:57:12.259Z</time></trkpt><trkpt lat="45.7423976" lon="8.9713725"><ele>361.0</ele><time>2026-04-18T06:57:16.203Z</time></trkpt><trkpt lat="45.7423183" lon="8.9713695"><ele>361.0</ele><time>2026-04-18T06:57:20.219Z</time></trkpt><trkpt lat="45.7422545" lon="8.9713498"><ele>361.0</ele><time>2026-04-18T06:57:23.264Z</time></trkpt><trkpt lat="45.7421932" lon="8.9713184"><ele>361.0</ele><time>2026-04-18T06:57:26.404Z</time></trkpt><trkpt lat="45.742128" lon="8.9712848"><ele>361.0</ele><time>2026-04-18T06:57:30.297Z</time></trkpt><trkpt lat="45.7420645" lon="8.9712483"><ele>361.0</ele><time>2026-04-18T06:57:34.359Z</time></trkpt><trkpt lat="45.7420015" lon="8.9712208"><ele>361.0</ele><time>2026-04-18T06:57:38.308Z</time></trkpt><trkpt lat="45.7419361" lon="8.9711944"><ele>361.0</ele><time>2026-04-18T06:57:42.317Z</time></trkpt><trkpt lat="45.7418719" lon="8.9711827"><ele>361.0</ele><time>2026-04-18T06:57:46.325Z</time></trkpt><trkpt lat="45.7418062" lon="8.9711594"><ele>361.0</ele><time>2026-04-18T06:57:50.334Z</time></trkpt><trkpt lat="45.7417424" lon="8.9711364"><ele>361.0</ele><time>2026-04-18T06:57:54.343Z</time></trkpt><trkpt lat="45.7416724" lon="8.9711241"><ele>361.0</ele><time>2026-04-18T06:57:59.281Z</time></trkpt><trkpt lat="45.7415971" lon="8.9711413"><ele>361.0</ele><time>2026-04-18T06:58:04.185Z</time></trkpt><trkpt lat="45.7415324" lon="8.9711575"><ele>361.0</ele><time>2026-04-18T06:58:09.222Z</time></trkpt><trkpt lat="45.7414532" lon="8.9711581"><ele>361.0</ele><time>2026-04-18T06:58:15.243Z</time></trkpt><trkpt lat="45.7413845" lon="8.9711546"><ele>361.0</ele><time>2026-04-18T06:58:19.224Z</time></trkpt><trkpt lat="45.7413071" lon="8.971138"><ele>361.0</ele><time>2026-04-18T06:58:23.245Z</time></trkpt><trkpt lat="45.7412322" lon="8.9711277"><ele>361.0</ele><time>2026-04-18T06:58:28.281Z</time></trkpt><trkpt lat="45.741155" lon="8.9711437"><ele>361.0</ele><time>2026-04-18T06:58:33.301Z</time></trkpt><trkpt lat="45.7410848" lon="8.9711565"><ele>361.14285714285717</ele><time>2026-04-18T06:58:37.343Z</time></trkpt><trkpt lat="45.7410164" lon="8.9711631"><ele>361.2857142857143</ele><time>2026-04-18T06:58:41.398Z</time></trkpt><trkpt lat="45.7409455" lon="8.9711741"><ele>361.42857142857144</ele><time>2026-04-18T06:58:46.34Z</time></trkpt><trkpt lat="45.7408789" lon="8.9711632"><ele>361.57142857142856</ele><time>2026-04-18T06:58:50.338Z</time></trkpt><trkpt lat="45.7408105" lon="8.9711679"><ele>361.71428571428567</ele><time>2026-04-18T06:58:54.358Z</time></trkpt><trkpt lat="45.7407377" lon="8.971164"><ele>361.85714285714283</ele><time>2026-04-18T06:58:58.398Z</time></trkpt><trkpt lat="45.7406732" lon="8.9711793"><ele>362.0</ele><time>2026-04-18T06:59:02.375Z</time></trkpt><trkpt lat="45.7406029" lon="8.9711754"><ele>362.0</ele><time>2026-04-18T06:59:07.3Z</time></trkpt><trkpt lat="45.7405398" lon="8.9711565"><ele>362.0</ele><time>2026-04-18T06:59:13.396Z</time></trkpt><trkpt lat="45.7404756" lon="8.9711756"><ele>362.0</ele><time>2026-04-18T06:59:19.327Z</time></trkpt><trkpt lat="45.7404181" lon="8.9712366"><ele>362.0</ele><time>2026-04-18T06:59:26.313Z</time></trkpt><trkpt lat="45.7403675" lon="8.9712983"><ele>362.0</ele><time>2026-04-18T06:59:32.383Z</time></trkpt><trkpt lat="45.7403054" lon="8.9713457"><ele>362.0</ele><time>2026-04-18T06:59:37.307Z</time></trkpt><trkpt lat="45.7402394" lon="8.9714041"><ele>362.0</ele><time>2026-04-18T06:59:42.259Z</time></trkpt><trkpt lat="45.740176" lon="8.9714463"><ele>362.1428571428571</ele><time>2026-04-18T06:59:46.201Z</time></trkpt><trkpt lat="45.7401116" lon="8.9714805"><ele>362.2857142857143</ele><time>2026-04-18T06:59:50.364Z</time></trkpt><trkpt lat="45.7400444" lon="8.9715197"><ele>362.42857142857144</ele><time>2026-04-18T06:59:55.258Z</time></trkpt><trkpt lat="45.7399761" lon="8.9715625"><ele>362.57142857142856</ele><time>2026-04-18T07:00:00.217Z</time></trkpt><trkpt lat="45.7399167" lon="8.9715972"><ele>362.7142857142857</ele><time>2026-04-18T07:00:04.283Z</time></trkpt><trkpt lat="45.7398449" lon="8.9716098"><ele>362.85714285714283</ele><time>2026-04-18T07:00:09.378Z</time></trkpt><trkpt lat="45.7397816" lon="8.9716187"><ele>363.0</ele><time>2026-04-18T07:00:14.302Z</time></trkpt><trkpt lat="45.7397141" lon="8.9716493"><ele>362.99999999999994</ele><time>2026-04-18T07:00:19.341Z</time></trkpt><trkpt lat="45.7396508" lon="8.9716742"><ele>363.0</ele><time>2026-04-18T07:00:25.237Z</time></trkpt><trkpt lat="45.7395921" lon="8.9717399"><ele>363.0</ele><time>2026-04-18T07:00:31.299Z</time></trkpt><trkpt lat="45.7395314" lon="8.9717914"><ele>363.0</ele><time>2026-04-18T07:00:36.385Z</time></trkpt><trkpt lat="45.7394648" lon="8.971839"><ele>363.0</ele><time>2026-04-18T07:00:41.332Z</time></trkpt><trkpt lat="45.7394297" lon="8.9719266"><ele>362.99999999999994</ele><time>2026-04-18T07:00:47.4Z</time></trkpt><trkpt lat="45.7393628" lon="8.9719046"><ele>363.0</ele><time>2026-04-18T07:00:49.234Z</time></trkpt><trkpt lat="45.7393167" lon="8.971977"><ele>362.3333333333333</ele><time>2026-04-18T07:00:55.305Z</time></trkpt><trkpt lat="45.7392675" lon="8.9720338"><ele>361.6666666666667</ele><time>2026-04-18T07:01:00.344Z</time></trkpt><trkpt lat="45.7392714" lon="8.9721927"><ele>361.0</ele><time>2026-04-18T07:01:04.353Z</time></trkpt><trkpt lat="45.7392615" lon="8.9723034"><ele>360.33333333333337</ele><time>2026-04-18T07:01:08.361Z</time></trkpt><trkpt lat="45.7392194" lon="8.9723871"><ele>359.6666666666667</ele><time>2026-04-18T07:01:17.295Z</time></trkpt><trkpt lat="45.7391551" lon="8.9724393"><ele>359.0</ele><time>2026-04-18T07:01:21.189Z</time></trkpt><trkpt lat="45.739085" lon="8.9724598"><ele>359.0</ele><time>2026-04-18T07:01:26.244Z</time></trkpt><trkpt lat="45.7390121" lon="8.9724416"><ele>359.0</ele><time>2026-04-18T07:01:33.542Z</time></trkpt><trkpt lat="45.7389488" lon="8.9724416"><ele>359.0</ele><time>2026-04-18T07:01:39.101Z</time></trkpt><trkpt lat="45.7388741" lon="8.9724436"><ele>359.0</ele><time>2026-04-18T07:01:44.265Z</time></trkpt><trkpt lat="45.7387996" lon="8.9724419"><ele>359.0</ele><time>2026-04-18T07:01:48.279Z</time></trkpt><trkpt lat="45.7387306" lon="8.9724397"><ele>359.0</ele><time>2026-04-18T07:01:53.373Z</time></trkpt><trkpt lat="45.7386619" lon="8.9724488"><ele>359.0</ele><time>2026-04-18T07:01:58.298Z</time></trkpt><trkpt lat="45.7385777" lon="8.972406"><ele>359.0</ele><time>2026-04-18T07:02:03.337Z</time></trkpt><trkpt lat="45.7385187" lon="8.9723671"><ele>359.0</ele><time>2026-04-18T07:02:07.362Z</time></trkpt><trkpt lat="45.7384363" lon="8.9723653"><ele>359.0</ele><time>2026-04-18T07:02:12.385Z</time></trkpt><trkpt lat="45.7383725" lon="8.9723624"><ele>359.0</ele><time>2026-04-18T07:02:16.28Z</time></trkpt><trkpt lat="45.7382936" lon="8.972338"><ele>359.0</ele><time>2026-04-18T07:02:22.35Z</time></trkpt><trkpt lat="45.7382157" lon="8.9723158"><ele>359.0</ele><time>2026-04-18T07:02:27.389Z</time></trkpt><trkpt lat="45.7381446" lon="8.9722768"><ele>359.0</ele><time>2026-04-18T07:02:31.357Z</time></trkpt><trkpt lat="45.7380713" lon="8.972257"><ele>359.0</ele><time>2026-04-18T07:02:36.339Z</time></trkpt><trkpt lat="45.737998" lon="8.9722446"><ele>359.0</ele><time>2026-04-18T07:02:41.362Z</time></trkpt><trkpt lat="45.7379246" lon="8.9722591"><ele>359.0</ele><time>2026-04-18T07:02:46.287Z</time></trkpt><trkpt lat="45.7378585" lon="8.9722352"><ele>359.0</ele><time>2026-04-18T07:02:52.196Z</time></trkpt><trkpt lat="45.7377919" lon="8.9722181"><ele>359.0</ele><time>2026-04-18T07:02:57.282Z</time></trkpt><trkpt lat="45.7377317" lon="8.9721626"><ele>359.0</ele><time>2026-04-18T07:03:03.159Z</time></trkpt><trkpt lat="45.7376709" lon="8.9721359"><ele>359.0</ele><time>2026-04-18T07:03:16.294Z</time></trkpt><trkpt lat="45.7375183" lon="8.9721083"><ele>359.42857142857144</ele><time>2026-04-18T07:03:27.281Z</time></trkpt><trkpt lat="45.7374733" lon="8.9720433"><ele>359.8571428571429</ele><time>2026-04-18T07:03:34.28Z</time></trkpt><trkpt lat="45.7374467" lon="8.9719507"><ele>360.2857142857143</ele><time>2026-04-18T07:03:43.324Z</time></trkpt><trkpt lat="45.7374132" lon="8.9718687"><ele>360.7142857142857</ele><time>2026-04-18T07:03:49.282Z</time></trkpt><trkpt lat="45.7373755" lon="8.9717869"><ele>361.1428571428571</ele><time>2026-04-18T07:03:54.284Z</time></trkpt><trkpt lat="45.7373357" lon="8.9716988"><ele>361.57142857142856</ele><time>2026-04-18T07:03:59.198Z</time></trkpt><trkpt lat="45.7373043" lon="8.9715958"><ele>362.0</ele><time>2026-04-18T07:04:04.038Z</time></trkpt><trkpt lat="45.7372634" lon="8.9715262"><ele>361.2857142857143</ele><time>2026-04-18T07:04:07.938Z</time></trkpt><trkpt lat="45.7372144" lon="8.9714494"><ele>360.57142857142856</ele><time>2026-04-18T07:04:12.888Z</time></trkpt><trkpt lat="45.7371531" lon="8.9713907"><ele>359.8571428571429</ele><time>2026-04-18T07:04:17.781Z</time></trkpt><trkpt lat="45.7371057" lon="8.9713267"><ele>359.1428571428571</ele><time>2026-04-18T07:04:21.937Z</time></trkpt><trkpt lat="45.7370624" lon="8.9712468"><ele>358.42857142857144</ele><time>2026-04-18T07:04:26.404Z</time></trkpt><trkpt lat="45.7370049" lon="8.9711732"><ele>357.7142857142857</ele><time>2026-04-18T07:04:30.282Z</time></trkpt><trkpt lat="45.7369464" lon="8.9711398"><ele>357.0</ele><time>2026-04-18T07:04:33.375Z</time></trkpt><trkpt lat="45.7368854" lon="8.9711093"><ele>357.0</ele><time>2026-04-18T07:04:36.316Z</time></trkpt><trkpt lat="45.7368089" lon="8.9710671"><ele>357.0</ele><time>2026-04-18T07:04:39.33Z</time></trkpt><trkpt lat="45.7367367" lon="8.9710133"><ele>357.0</ele><time>2026-04-18T07:04:42.308Z</time></trkpt><trkpt lat="45.7366706" lon="8.970989"><ele>357.0</ele><time>2026-04-18T07:04:45.286Z</time></trkpt><trkpt lat="45.7365935" lon="8.9709651"><ele>357.0</ele><time>2026-04-18T07:04:48.378Z</time></trkpt><trkpt lat="45.7365267" lon="8.9709512"><ele>357.0</ele><time>2026-04-18T07:04:51.396Z</time></trkpt><trkpt lat="45.7364638" lon="8.9709211"><ele>357.0</ele><time>2026-04-18T07:04:54.299Z</time></trkpt><trkpt lat="45.7363976" lon="8.9708824"><ele>357.0</ele><time>2026-04-18T07:04:57.204Z</time></trkpt><trkpt lat="45.7363304" lon="8.9708585"><ele>357.0</ele><time>2026-04-18T07:05:00.144Z</time></trkpt><trkpt lat="45.7362518" lon="8.9708435"><ele>357.0</ele><time>2026-04-18T07:05:04.019Z</time></trkpt><trkpt lat="45.7361751" lon="8.9708458"><ele>357.0</ele><time>2026-04-18T07:05:07.922Z</time></trkpt><trkpt lat="45.7360991" lon="8.9708406"><ele>357.0</ele><time>2026-04-18T07:05:12.265Z</time></trkpt><trkpt lat="45.7360313" lon="8.9708161"><ele>357.0</ele><time>2026-04-18T07:05:16.178Z</time></trkpt><trkpt lat="45.7359552" lon="8.9707986"><ele>357.0</ele><time>2026-04-18T07:05:20.332Z</time></trkpt><trkpt lat="45.7358897" lon="8.9707829"><ele>356.85714285714283</ele><time>2026-04-18T07:05:24.342Z</time></trkpt><trkpt lat="45.735822" lon="8.9707778"><ele>356.7142857142857</ele><time>2026-04-18T07:05:28.404Z</time></trkpt><trkpt lat="45.735743" lon="8.9707899"><ele>356.57142857142856</ele><time>2026-04-18T07:05:32.317Z</time></trkpt><trkpt lat="45.735666" lon="8.9708131"><ele>356.42857142857144</ele><time>2026-04-18T07:05:36.367Z</time></trkpt><trkpt lat="45.7355966" lon="8.970847"><ele>356.2857142857143</ele><time>2026-04-18T07:05:41.165Z</time></trkpt><trkpt lat="45.7355461" lon="8.9709185"><ele>356.1428571428571</ele><time>2026-04-18T07:05:46.405Z</time></trkpt><trkpt lat="45.7355139" lon="8.970999"><ele>356.0</ele><time>2026-04-18T07:05:50.301Z</time></trkpt><trkpt lat="45.7354886" lon="8.9710839"><ele>355.99999999999994</ele><time>2026-04-18T07:05:54.221Z</time></trkpt><trkpt lat="45.7354378" lon="8.9711641"><ele>356.0</ele><time>2026-04-18T07:05:59.117Z</time></trkpt><trkpt lat="45.7353957" lon="8.9712371"><ele>356.0</ele><time>2026-04-18T07:06:04.343Z</time></trkpt><trkpt lat="45.7354103" lon="8.9711448"><ele>356.0</ele><time>2026-04-18T07:06:14.337Z</time></trkpt><trkpt lat="45.7354413" lon="8.9710637"><ele>356.0</ele><time>2026-04-18T07:06:20.378Z</time></trkpt><trkpt lat="45.7354504" lon="8.9709621"><ele>355.99999999999994</ele><time>2026-04-18T07:06:25.378Z</time></trkpt><trkpt lat="45.7354754" lon="8.9708662"><ele>356.0</ele><time>2026-04-18T07:06:30.38Z</time></trkpt><trkpt lat="45.7355293" lon="8.9708045"><ele>354.85714285714283</ele><time>2026-04-18T07:06:34.44Z</time></trkpt><trkpt lat="45.7355353" lon="8.9707147"><ele>353.7142857142857</ele><time>2026-04-18T07:06:36.279Z</time></trkpt><trkpt lat="45.7355349" lon="8.9706195"><ele>352.57142857142856</ele><time>2026-04-18T07:06:39.359Z</time></trkpt><trkpt lat="45.7355039" lon="8.9705286"><ele>351.42857142857144</ele><time>2026-04-18T07:06:43.278Z</time></trkpt><trkpt lat="45.7354983" lon="8.9704211"><ele>350.2857142857143</ele><time>2026-04-18T07:06:48.293Z</time></trkpt><trkpt lat="45.7355006" lon="8.9703233"><ele>349.1428571428571</ele><time>2026-04-18T07:06:54.223Z</time></trkpt><trkpt lat="45.7355046" lon="8.9702223"><ele>348.0</ele><time>2026-04-18T07:07:00.32Z</time></trkpt><trkpt lat="45.7354922" lon="8.9701135"><ele>346.42857142857144</ele><time>2026-04-18T07:07:05.361Z</time></trkpt><trkpt lat="45.7354784" lon="8.9700091"><ele>344.8571428571429</ele><time>2026-04-18T07:07:10.086Z</time></trkpt><trkpt lat="45.7355088" lon="8.9699127"><ele>343.28571428571433</ele><time>2026-04-18T07:07:16.357Z</time></trkpt><trkpt lat="45.7355076" lon="8.9698203"><ele>341.7142857142857</ele><time>2026-04-18T07:07:19.335Z</time></trkpt><trkpt lat="45.7355381" lon="8.9697365"><ele>340.14285714285717</ele><time>2026-04-18T07:07:23.344Z</time></trkpt><trkpt lat="45.7354576" lon="8.9697169"><ele>338.5714285714286</ele><time>2026-04-18T07:07:25.292Z</time></trkpt><trkpt lat="45.7354444" lon="8.96962"><ele>337.0</ele><time>2026-04-18T07:07:28.384Z</time></trkpt><trkpt lat="45.7354396" lon="8.9695184"><ele>337.00000000000006</ele><time>2026-04-18T07:07:33.246Z</time></trkpt><trkpt lat="45.7354305" lon="8.9694109"><ele>337.0</ele><time>2026-04-18T07:07:38.341Z</time></trkpt><trkpt lat="45.7354265" lon="8.9693192"><ele>337.0</ele><time>2026-04-18T07:07:42.361Z</time></trkpt><trkpt lat="45.7354393" lon="8.9692072"><ele>337.0</ele><time>2026-04-18T07:07:47.283Z</time></trkpt><trkpt lat="45.7354501" lon="8.9691004"><ele>337.0</ele><time>2026-04-18T07:07:53.354Z</time></trkpt><trkpt lat="45.7354327" lon="8.9689986"><ele>337.00000000000006</ele><time>2026-04-18T07:07:59.309Z</time></trkpt><trkpt lat="45.7354544" lon="8.9689019"><ele>337.0</ele><time>2026-04-18T07:08:03.318Z</time></trkpt><trkpt lat="45.7354709" lon="8.9687967"><ele>336.7142857142857</ele><time>2026-04-18T07:08:07.328Z</time></trkpt><trkpt lat="45.7354757" lon="8.9686955"><ele>336.42857142857144</ele><time>2026-04-18T07:08:11.336Z</time></trkpt><trkpt lat="45.7354888" lon="8.9685868"><ele>336.1428571428571</ele><time>2026-04-18T07:08:16.163Z</time></trkpt><trkpt lat="45.7355083" lon="8.9684737"><ele>335.8571428571429</ele><time>2026-04-18T07:08:21.322Z</time></trkpt><trkpt lat="45.7355295" lon="8.9683844"><ele>335.57142857142856</ele><time>2026-04-18T07:08:25.245Z</time></trkpt><trkpt lat="45.7355493" lon="8.9682969"><ele>335.2857142857143</ele><time>2026-04-18T07:08:29.259Z</time></trkpt><trkpt lat="45.735579" lon="8.9682054"><ele>335.0</ele><time>2026-04-18T07:08:34.284Z</time></trkpt><trkpt lat="45.7356138" lon="8.9681194"><ele>334.85714285714283</ele><time>2026-04-18T07:08:39.319Z</time></trkpt><trkpt lat="45.7356339" lon="8.968032"><ele>334.7142857142857</ele><time>2026-04-18T07:08:44.4Z</time></trkpt><trkpt lat="45.7356488" lon="8.9679439"><ele>334.57142857142856</ele><time>2026-04-18T07:08:49.362Z</time></trkpt><trkpt lat="45.7356549" lon="8.9678486"><ele>334.42857142857144</ele><time>2026-04-18T07:08:53.371Z</time></trkpt><trkpt lat="45.7356629" lon="8.9677558"><ele>334.2857142857143</ele><time>2026-04-18T07:08:58.296Z</time></trkpt><trkpt lat="45.7356727" lon="8.9676485"><ele>334.1428571428571</ele><time>2026-04-18T07:09:03.4Z</time></trkpt><trkpt lat="45.7356825" lon="8.9675594"><ele>334.0</ele><time>2026-04-18T07:09:07.345Z</time></trkpt><trkpt lat="45.7356814" lon="8.9674594"><ele>334.7142857142857</ele><time>2026-04-18T07:09:12.396Z</time></trkpt><trkpt lat="45.7356881" lon="8.9673552"><ele>335.42857142857144</ele><time>2026-04-18T07:09:17.497Z</time></trkpt><trkpt lat="45.7356888" lon="8.9672588"><ele>336.1428571428571</ele><time>2026-04-18T07:09:22.349Z</time></trkpt><trkpt lat="45.7357036" lon="8.9671627"><ele>336.8571428571429</ele><time>2026-04-18T07:09:28.305Z</time></trkpt><trkpt lat="45.7357149" lon="8.9670686"><ele>337.5714285714286</ele><time>2026-04-18T07:09:33.345Z</time></trkpt><trkpt lat="45.7357185" lon="8.9669605"><ele>338.2857142857143</ele><time>2026-04-18T07:09:38.281Z</time></trkpt><trkpt lat="45.7357328" lon="8.9668522"><ele>339.0</ele><time>2026-04-18T07:09:43.221Z</time></trkpt><trkpt lat="45.735738" lon="8.9667422"><ele>340.0</ele><time>2026-04-18T07:09:48.28Z</time></trkpt><trkpt lat="45.7357108" lon="8.9666498"><ele>341.0</ele><time>2026-04-18T07:09:53.376Z</time></trkpt><trkpt lat="45.7356401" lon="8.9666138"><ele>342.0</ele><time>2026-04-18T07:09:57.284Z</time></trkpt><trkpt lat="45.7356065" lon="8.9665279"><ele>343.0</ele><time>2026-04-18T07:10:01.293Z</time></trkpt><trkpt lat="45.7355496" lon="8.9664589"><ele>344.0</ele><time>2026-04-18T07:10:06.333Z</time></trkpt><trkpt lat="45.73548" lon="8.9664341"><ele>345.0</ele><time>2026-04-18T07:10:11.278Z</time></trkpt><trkpt lat="45.7354126" lon="8.9664053"><ele>346.0</ele><time>2026-04-18T07:10:16.34Z</time></trkpt><trkpt lat="45.7353539" lon="8.9663549"><ele>346.0</ele><time>2026-04-18T07:10:21.339Z</time></trkpt><trkpt lat="45.7353004" lon="8.9662729"><ele>346.0</ele><time>2026-04-18T07:10:30.275Z</time></trkpt><trkpt lat="45.7353065" lon="8.9661827"><ele>346.0</ele><time>2026-04-18T07:10:36.345Z</time></trkpt><trkpt lat="45.7353503" lon="8.9661088"><ele>346.0</ele><time>2026-04-18T07:10:48.604Z</time></trkpt><trkpt lat="45.7354119" lon="8.9660624"><ele>346.0</ele><time>2026-04-18T07:10:55.701Z</time></trkpt><trkpt lat="45.7354817" lon="8.9660105"><ele>346.0</ele><time>2026-04-18T07:11:01.939Z</time></trkpt><trkpt lat="45.7355487" lon="8.9659648"><ele>346.0</ele><time>2026-04-18T07:11:07.017Z</time></trkpt><trkpt lat="45.7356126" lon="8.965941"><ele>346.0</ele><time>2026-04-18T07:11:12.138Z</time></trkpt><trkpt lat="45.7356692" lon="8.9658999"><ele>346.0</ele><time>2026-04-18T07:11:17.241Z</time></trkpt><trkpt lat="45.7357347" lon="8.9658787"><ele>346.0</ele><time>2026-04-18T07:11:23.34Z</time></trkpt><trkpt lat="45.7357928" lon="8.9658316"><ele>346.0</ele><time>2026-04-18T07:11:29.379Z</time></trkpt><trkpt lat="45.7358647" lon="8.9658163"><ele>346.0</ele><time>2026-04-18T07:11:35.335Z</time></trkpt><trkpt lat="45.7359284" lon="8.9657825"><ele>346.0</ele><time>2026-04-18T07:11:40.225Z</time></trkpt><trkpt lat="45.7359886" lon="8.9657427"><ele>346.0</ele><time>2026-04-18T07:11:44.158Z</time></trkpt><trkpt lat="45.7360616" lon="8.9657268"><ele>347.7142857142857</ele><time>2026-04-18T07:11:49.117Z</time></trkpt><trkpt lat="45.736129" lon="8.965689"><ele>349.42857142857144</ele><time>2026-04-18T07:11:54.35Z</time></trkpt><trkpt lat="45.7361898" lon="8.9656287"><ele>351.14285714285717</ele><time>2026-04-18T07:11:59.276Z</time></trkpt><trkpt lat="45.7362412" lon="8.9655649"><ele>352.8571428571429</ele><time>2026-04-18T07:12:03.284Z</time></trkpt><trkpt lat="45.7362871" lon="8.965503"><ele>354.57142857142856</ele><time>2026-04-18T07:12:07.457Z</time></trkpt><trkpt lat="45.7363273" lon="8.9654291"><ele>356.28571428571433</ele><time>2026-04-18T07:12:11.504Z</time></trkpt><trkpt lat="45.7363666" lon="8.9653526"><ele>358.0</ele><time>2026-04-18T07:12:15.58Z</time></trkpt><trkpt lat="45.7363957" lon="8.9652627"><ele>358.00000000000006</ele><time>2026-04-18T07:12:20.701Z</time></trkpt><trkpt lat="45.736426" lon="8.9651748"><ele>358.0</ele><time>2026-04-18T07:12:24.945Z</time></trkpt><trkpt lat="45.7364496" lon="8.9650686"><ele>358.0</ele><time>2026-04-18T07:12:29.998Z</time></trkpt><trkpt lat="45.7364711" lon="8.9649805"><ele>358.0</ele><time>2026-04-18T07:12:35.075Z</time></trkpt><trkpt lat="45.7365128" lon="8.9648894"><ele>358.0</ele><time>2026-04-18T07:12:39Z</time></trkpt><trkpt lat="45.7365568" lon="8.9648239"><ele>358.00000000000006</ele><time>2026-04-18T07:12:42.063Z</time></trkpt><trkpt lat="45.7366092" lon="8.9647681"><ele>358.0</ele><time>2026-04-18T07:12:46.101Z</time></trkpt><trkpt lat="45.7366775" lon="8.9647286"><ele>358.5714285714286</ele><time>2026-04-18T07:12:51.141Z</time></trkpt><trkpt lat="45.7367424" lon="8.9647004"><ele>359.14285714285717</ele><time>2026-04-18T07:12:55.16Z</time></trkpt><trkpt lat="45.7368046" lon="8.9646668"><ele>359.7142857142857</ele><time>2026-04-18T07:12:59.197Z</time></trkpt><trkpt lat="45.7368754" lon="8.9646385"><ele>360.28571428571433</ele><time>2026-04-18T07:13:04.337Z</time></trkpt><trkpt lat="45.7369486" lon="8.9646185"><ele>360.85714285714283</ele><time>2026-04-18T07:13:10.302Z</time></trkpt><trkpt lat="45.7370129" lon="8.9646048"><ele>361.42857142857144</ele><time>2026-04-18T07:13:14.397Z</time></trkpt><trkpt lat="45.7370761" lon="8.9645743"><ele>362.0</ele><time>2026-04-18T07:13:18.397Z</time></trkpt><trkpt lat="45.7371382" lon="8.9645557"><ele>362.0</ele><time>2026-04-18T07:13:22.438Z</time></trkpt><trkpt lat="45.7372024" lon="8.9645495"><ele>362.0</ele><time>2026-04-18T07:13:27.358Z</time></trkpt><trkpt lat="45.7372673" lon="8.9645388"><ele>362.0</ele><time>2026-04-18T07:13:33.313Z</time></trkpt><trkpt lat="45.7373364" lon="8.9645241"><ele>362.0</ele><time>2026-04-18T07:13:37.322Z</time></trkpt><trkpt lat="45.7374037" lon="8.9645038"><ele>362.0</ele><time>2026-04-18T07:13:41.331Z</time></trkpt><trkpt lat="45.7374859" lon="8.9644949"><ele>362.0</ele><time>2026-04-18T07:13:45.34Z</time></trkpt><trkpt lat="45.7375551" lon="8.9644879"><ele>362.0</ele><time>2026-04-18T07:13:48.318Z</time></trkpt><trkpt lat="45.7376282" lon="8.9644735"><ele>362.0</ele><time>2026-04-18T07:13:51.296Z</time></trkpt><trkpt lat="45.7376908" lon="8.9644605"><ele>362.0</ele><time>2026-04-18T07:13:54.281Z</time></trkpt><trkpt lat="45.73776" lon="8.9644545"><ele>362.0</ele><time>2026-04-18T07:13:58.283Z</time></trkpt><trkpt lat="45.7378326" lon="8.9644457"><ele>362.0</ele><time>2026-04-18T07:14:02.292Z</time></trkpt><trkpt lat="45.7379094" lon="8.9644675"><ele>362.0</ele><time>2026-04-18T07:14:06.301Z</time></trkpt><trkpt lat="45.7379725" lon="8.9645093"><ele>362.0</ele><time>2026-04-18T07:14:10.31Z</time></trkpt><trkpt lat="45.7380399" lon="8.9645559"><ele>362.0</ele><time>2026-04-18T07:14:15.349Z</time></trkpt><trkpt lat="45.7380998" lon="8.964605"><ele>362.0</ele><time>2026-04-18T07:14:21.24Z</time></trkpt><trkpt lat="45.738165" lon="8.9646221"><ele>362.0</ele><time>2026-04-18T07:14:28.293Z</time></trkpt><trkpt lat="45.7381879" lon="8.9645273"><ele>362.0</ele><time>2026-04-18T07:14:34.363Z</time></trkpt><trkpt lat="45.7381919" lon="8.9644168"><ele>362.0</ele><time>2026-04-18T07:15:12.278Z</time></trkpt><trkpt lat="45.7382355" lon="8.9644857"><ele>362.0</ele><time>2026-04-18T07:18:59.757Z</time></trkpt><trkpt lat="45.7382611" lon="8.9645797"><ele>362.0</ele><time>2026-04-18T07:19:03.704Z</time></trkpt><trkpt lat="45.7381912" lon="8.9646265"><ele>362.0</ele><time>2026-04-18T07:19:09.699Z</time></trkpt><trkpt lat="45.7381265" lon="8.9646216"><ele>362.0</ele><time>2026-04-18T07:19:14.62Z</time></trkpt><trkpt lat="45.7380755" lon="8.964551"><ele>362.0</ele><time>2026-04-18T07:19:18.581Z</time></trkpt><trkpt lat="45.7380589" lon="8.9644537"><ele>362.0</ele><time>2026-04-18T07:19:23.566Z</time></trkpt><trkpt lat="45.7379938" lon="8.9644253"><ele>362.0</ele><time>2026-04-18T07:19:32.603Z</time></trkpt><trkpt lat="45.7379228" lon="8.9644436"><ele>362.0</ele><time>2026-04-18T07:19:37.581Z</time></trkpt><trkpt lat="45.7378545" lon="8.9644409"><ele>362.0</ele><time>2026-04-18T07:19:41.642Z</time></trkpt><trkpt lat="45.7377791" lon="8.9644486"><ele>362.0</ele><time>2026-04-18T07:19:46.621Z</time></trkpt><trkpt lat="45.7377152" lon="8.9644628"><ele>362.0</ele><time>2026-04-18T07:19:50.677Z</time></trkpt><trkpt lat="45.73764" lon="8.9644715"><ele>362.0</ele><time>2026-04-18T07:19:54.662Z</time></trkpt><trkpt lat="45.7375649" lon="8.9644871"><ele>362.0</ele><time>2026-04-18T07:19:59.644Z</time></trkpt><trkpt lat="45.7374886" lon="8.9645052"><ele>362.0</ele><time>2026-04-18T07:20:04.686Z</time></trkpt><trkpt lat="45.7374113" lon="8.9645101"><ele>362.0</ele><time>2026-04-18T07:20:09.762Z</time></trkpt><trkpt lat="45.7373408" lon="8.9645111"><ele>362.0</ele><time>2026-04-18T07:20:14.96Z</time></trkpt><trkpt lat="45.7372733" lon="8.9645104"><ele>362.0</ele><time>2026-04-18T07:20:19.021Z</time></trkpt><trkpt lat="45.7372087" lon="8.964512"><ele>362.0</ele><time>2026-04-18T07:20:23.02Z</time></trkpt><trkpt lat="45.7371348" lon="8.9645299"><ele>362.0</ele><time>2026-04-18T07:20:29.057Z</time></trkpt><trkpt lat="45.7370723" lon="8.96455"><ele>362.0</ele><time>2026-04-18T07:20:34.103Z</time></trkpt><trkpt lat="45.7370084" lon="8.9645713"><ele>362.0</ele><time>2026-04-18T07:20:38.14Z</time></trkpt><trkpt lat="45.7369393" lon="8.9645871"><ele>362.0</ele><time>2026-04-18T07:20:42.139Z</time></trkpt><trkpt lat="45.7368692" lon="8.964602"><ele>362.0</ele><time>2026-04-18T07:20:47.165Z</time></trkpt><trkpt lat="45.7368062" lon="8.9646374"><ele>362.0</ele><time>2026-04-18T07:20:51.383Z</time></trkpt><trkpt lat="45.7367309" lon="8.9646709"><ele>362.1428571428571</ele><time>2026-04-18T07:20:55.348Z</time></trkpt><trkpt lat="45.7366652" lon="8.9647113"><ele>362.2857142857143</ele><time>2026-04-18T07:20:59.356Z</time></trkpt><trkpt lat="45.7366019" lon="8.9647536"><ele>362.42857142857144</ele><time>2026-04-18T07:21:03.301Z</time></trkpt><trkpt lat="45.7365325" lon="8.9647826"><ele>362.57142857142856</ele><time>2026-04-18T07:21:07.374Z</time></trkpt><trkpt lat="45.736472" lon="8.9648557"><ele>362.7142857142857</ele><time>2026-04-18T07:21:11.281Z</time></trkpt><trkpt lat="45.7364268" lon="8.9649248"><ele>362.85714285714283</ele><time>2026-04-18T07:21:16.308Z</time></trkpt><trkpt lat="45.736385" lon="8.9649946"><ele>363.0</ele><time>2026-04-18T07:21:22.38Z</time></trkpt><trkpt lat="45.7363636" lon="8.965103"><ele>362.2857142857143</ele><time>2026-04-18T07:21:27.458Z</time></trkpt><trkpt lat="45.7363345" lon="8.9652099"><ele>361.57142857142856</ele><time>2026-04-18T07:21:32.344Z</time></trkpt><trkpt lat="45.7363081" lon="8.9652922"><ele>360.8571428571429</ele><time>2026-04-18T07:21:37.281Z</time></trkpt><trkpt lat="45.7362772" lon="8.9653811"><ele>360.1428571428571</ele><time>2026-04-18T07:21:42.309Z</time></trkpt><trkpt lat="45.7362438" lon="8.9654744"><ele>359.42857142857144</ele><time>2026-04-18T07:21:47.286Z</time></trkpt><trkpt lat="45.7361959" lon="8.9655595"><ele>358.7142857142857</ele><time>2026-04-18T07:21:52.381Z</time></trkpt><trkpt lat="45.7361467" lon="8.9656322"><ele>358.0</ele><time>2026-04-18T07:21:57.314Z</time></trkpt><trkpt lat="45.736087" lon="8.9656775"><ele>357.8333333333333</ele><time>2026-04-18T07:22:05.332Z</time></trkpt><trkpt lat="45.7360175" lon="8.9656997"><ele>357.66666666666663</ele><time>2026-04-18T07:22:10.278Z</time></trkpt><trkpt lat="45.7359403" lon="8.9657282"><ele>357.5</ele><time>2026-04-18T07:22:14.359Z</time></trkpt><trkpt lat="45.7358721" lon="8.9657516"><ele>357.3333333333333</ele><time>2026-04-18T07:22:18.377Z</time></trkpt><trkpt lat="45.7357891" lon="8.965801"><ele>357.1666666666667</ele><time>2026-04-18T07:22:22.429Z</time></trkpt><trkpt lat="45.7357279" lon="8.9658313"><ele>357.0</ele><time>2026-04-18T07:22:25.376Z</time></trkpt><trkpt lat="45.7356549" lon="8.9658579"><ele>357.0</ele><time>2026-04-18T07:22:29.279Z</time></trkpt><trkpt lat="45.7355862" lon="8.9658171"><ele>357.0</ele><time>2026-04-18T07:22:35.243Z</time></trkpt><trkpt lat="45.7355386" lon="8.9657569"><ele>357.0</ele><time>2026-04-18T07:22:40.378Z</time></trkpt><trkpt lat="45.7355175" lon="8.9656717"><ele>357.0</ele><time>2026-04-18T07:22:46.336Z</time></trkpt><trkpt lat="45.7354601" lon="8.9656266"><ele>357.0</ele><time>2026-04-18T07:25:43.299Z</time></trkpt><trkpt lat="45.7354371" lon="8.9657141"><ele>357.0</ele><time>2026-04-18T07:25:48.298Z</time></trkpt><trkpt lat="45.7354163" lon="8.9658033"><ele>357.0</ele><time>2026-04-18T07:25:56.397Z</time></trkpt><trkpt lat="45.735393" lon="8.9659068"><ele>355.42857142857144</ele><time>2026-04-18T07:26:03.297Z</time></trkpt><trkpt lat="45.7353898" lon="8.9660142"><ele>353.8571428571429</ele><time>2026-04-18T07:26:08.122Z</time></trkpt><trkpt lat="45.7353727" lon="8.9661121"><ele>352.2857142857143</ele><time>2026-04-18T07:26:13.002Z</time></trkpt><trkpt lat="45.7353464" lon="8.9661946"><ele>350.7142857142857</ele><time>2026-04-18T07:26:18.899Z</time></trkpt><trkpt lat="45.7353371" lon="8.9662992"><ele>349.14285714285717</ele><time>2026-04-18T07:26:25.587Z</time></trkpt><trkpt lat="45.7353835" lon="8.9663726"><ele>347.57142857142856</ele><time>2026-04-18T07:26:30.438Z</time></trkpt><trkpt lat="45.73544" lon="8.9664154"><ele>346.0</ele><time>2026-04-18T07:26:34.323Z</time></trkpt><trkpt lat="45.7355083" lon="8.9664419"><ele>346.0</ele><time>2026-04-18T07:26:38.141Z</time></trkpt><trkpt lat="45.735568" lon="8.9664845"><ele>346.0</ele><time>2026-04-18T07:26:43.161Z</time></trkpt><trkpt lat="45.7356116" lon="8.9665578"><ele>346.0</ele><time>2026-04-18T07:26:49.041Z</time></trkpt><trkpt lat="45.7356316" lon="8.9666471"><ele>346.0</ele><time>2026-04-18T07:26:53.981Z</time></trkpt><trkpt lat="45.7356519" lon="8.9667449"><ele>346.0</ele><time>2026-04-18T07:26:58.863Z</time></trkpt><trkpt lat="45.7356657" lon="8.966838"><ele>346.0</ele><time>2026-04-18T07:27:04.758Z</time></trkpt><trkpt lat="45.7356538" lon="8.966936"><ele>346.0</ele><time>2026-04-18T07:27:10.699Z</time></trkpt><trkpt lat="45.7356498" lon="8.9670354"><ele>345.0</ele><time>2026-04-18T07:27:15.662Z</time></trkpt><trkpt lat="45.7356514" lon="8.9671351"><ele>344.0</ele><time>2026-04-18T07:27:19.642Z</time></trkpt><trkpt lat="45.7356488" lon="8.9672372"><ele>343.0</ele><time>2026-04-18T07:27:23.601Z</time></trkpt><trkpt lat="45.7356335" lon="8.9673441"><ele>342.0</ele><time>2026-04-18T07:27:28.581Z</time></trkpt><trkpt lat="45.7356202" lon="8.9674408"><ele>341.0</ele><time>2026-04-18T07:27:33.56Z</time></trkpt><trkpt lat="45.7356189" lon="8.9675424"><ele>340.0</ele><time>2026-04-18T07:27:37.562Z</time></trkpt><trkpt lat="45.7356134" lon="8.9676471"><ele>339.0</ele><time>2026-04-18T07:27:41.543Z</time></trkpt><trkpt lat="45.7356227" lon="8.9677644"><ele>338.4285714285714</ele><time>2026-04-18T07:27:45.48Z</time></trkpt><trkpt lat="45.7356244" lon="8.9678683"><ele>337.8571428571429</ele><time>2026-04-18T07:27:49.442Z</time></trkpt><trkpt lat="45.7356161" lon="8.9679747"><ele>337.2857142857143</ele><time>2026-04-18T07:27:53.421Z</time></trkpt><trkpt lat="45.7355941" lon="8.9680626"><ele>336.71428571428567</ele><time>2026-04-18T07:27:57.31Z</time></trkpt><trkpt lat="45.7355617" lon="8.9681654"><ele>336.1428571428571</ele><time>2026-04-18T07:28:02.356Z</time></trkpt><trkpt lat="45.7355412" lon="8.9682551"><ele>335.57142857142856</ele><time>2026-04-18T07:28:06.318Z</time></trkpt><trkpt lat="45.7355195" lon="8.9683446"><ele>335.0</ele><time>2026-04-18T07:28:10.284Z</time></trkpt><trkpt lat="45.7355017" lon="8.9684465"><ele>334.99999999999994</ele><time>2026-04-18T07:28:15.189Z</time></trkpt><trkpt lat="45.7354765" lon="8.968543"><ele>335.0</ele><time>2026-04-18T07:28:20.162Z</time></trkpt><trkpt lat="45.7354594" lon="8.9686389"><ele>335.0</ele><time>2026-04-18T07:28:24.057Z</time></trkpt><trkpt lat="45.735454" lon="8.9687418"><ele>335.0</ele><time>2026-04-18T07:28:27.942Z</time></trkpt><trkpt lat="45.7354438" lon="8.9688466"><ele>335.0</ele><time>2026-04-18T07:28:32.359Z</time></trkpt><trkpt lat="45.7354301" lon="8.9689521"><ele>334.99999999999994</ele><time>2026-04-18T07:28:36.379Z</time></trkpt><trkpt lat="45.7354293" lon="8.9690515"><ele>335.0</ele><time>2026-04-18T07:28:40.298Z</time></trkpt><trkpt lat="45.7354536" lon="8.9691579"><ele>335.2857142857143</ele><time>2026-04-18T07:28:45.223Z</time></trkpt><trkpt lat="45.7354558" lon="8.9692512"><ele>335.57142857142856</ele><time>2026-04-18T07:28:49.137Z</time></trkpt><trkpt lat="45.7354523" lon="8.9693438"><ele>335.8571428571429</ele><time>2026-04-18T07:28:53.065Z</time></trkpt><trkpt lat="45.7354575" lon="8.9694451"><ele>336.1428571428571</ele><time>2026-04-18T07:28:56.997Z</time></trkpt><trkpt lat="45.7354738" lon="8.9695528"><ele>336.42857142857144</ele><time>2026-04-18T07:29:01.902Z</time></trkpt><trkpt lat="45.7354879" lon="8.9696418"><ele>336.7142857142857</ele><time>2026-04-18T07:29:05.82Z</time></trkpt><trkpt lat="45.7355028" lon="8.969733"><ele>337.0</ele><time>2026-04-18T07:29:09.762Z</time></trkpt><trkpt lat="45.7355093" lon="8.9698231"><ele>337.00000000000006</ele><time>2026-04-18T07:29:13.704Z</time></trkpt><trkpt lat="45.7355202" lon="8.9699131"><ele>337.0</ele><time>2026-04-18T07:29:17.661Z</time></trkpt><trkpt lat="45.735524" lon="8.9700257"><ele>337.0</ele><time>2026-04-18T07:29:22.577Z</time></trkpt><trkpt lat="45.7355337" lon="8.9701206"><ele>337.0</ele><time>2026-04-18T07:29:26.524Z</time></trkpt><trkpt lat="45.7355433" lon="8.9702202"><ele>337.0</ele><time>2026-04-18T07:29:30.481Z</time></trkpt><trkpt lat="45.7355428" lon="8.9703109"><ele>337.00000000000006</ele><time>2026-04-18T07:29:34.327Z</time></trkpt><trkpt lat="45.7355312" lon="8.9704083"><ele>337.0</ele><time>2026-04-18T07:29:39.297Z</time></trkpt><trkpt lat="45.7355166" lon="8.9705079"><ele>338.5714285714286</ele><time>2026-04-18T07:29:44.262Z</time></trkpt><trkpt lat="45.7355181" lon="8.970603"><ele>340.14285714285717</ele><time>2026-04-18T07:29:49.282Z</time></trkpt><trkpt lat="45.7354966" lon="8.9707046"><ele>341.7142857142857</ele><time>2026-04-18T07:29:55.244Z</time></trkpt><trkpt lat="45.7354714" lon="8.9708024"><ele>343.28571428571433</ele><time>2026-04-18T07:30:01.202Z</time></trkpt><trkpt lat="45.7354608" lon="8.9709105"><ele>344.8571428571429</ele><time>2026-04-18T07:30:07.181Z</time></trkpt><trkpt lat="45.7354549" lon="8.9710188"><ele>346.42857142857144</ele><time>2026-04-18T07:30:13.137Z</time></trkpt><trkpt lat="45.7354474" lon="8.9711173"><ele>348.0</ele><time>2026-04-18T07:30:18.119Z</time></trkpt><trkpt lat="45.7354296" lon="8.9712233"><ele>348.0</ele><time>2026-04-18T07:30:23.163Z</time></trkpt><trkpt lat="45.7354682" lon="8.9711507"><ele>348.0</ele><time>2026-04-18T07:30:31.37Z</time></trkpt><trkpt lat="45.7354767" lon="8.9710552"><ele>348.0</ele><time>2026-04-18T07:30:38.357Z</time></trkpt><trkpt lat="45.7355045" lon="8.9709719"><ele>348.0</ele><time>2026-04-18T07:30:45.344Z</time></trkpt><trkpt lat="45.7355639" lon="8.9709181"><ele>348.0</ele><time>2026-04-18T07:30:51.159Z</time></trkpt><trkpt lat="45.7356308" lon="8.9708757"><ele>348.0</ele><time>2026-04-18T07:30:55.121Z</time></trkpt><trkpt lat="45.7357013" lon="8.9708386"><ele>348.0</ele><time>2026-04-18T07:30:59.119Z</time></trkpt><trkpt lat="45.7357655" lon="8.9708219"><ele>348.0</ele><time>2026-04-18T07:31:03.101Z</time></trkpt><trkpt lat="45.7358409" lon="8.9708017"><ele>348.0</ele><time>2026-04-18T07:31:08.045Z</time></trkpt><trkpt lat="45.7359055" lon="8.9707869"><ele>348.0</ele><time>2026-04-18T07:31:12.04Z</time></trkpt><trkpt lat="45.7359688" lon="8.9707783"><ele>348.0</ele><time>2026-04-18T07:31:16.038Z</time></trkpt><trkpt lat="45.736044" lon="8.9707994"><ele>348.0</ele><time>2026-04-18T07:31:21.001Z</time></trkpt><trkpt lat="45.7361179" lon="8.9708267"><ele>348.0</ele><time>2026-04-18T07:31:26.061Z</time></trkpt><trkpt lat="45.73619" lon="8.9708606"><ele>348.0</ele><time>2026-04-18T07:31:32.103Z</time></trkpt><trkpt lat="45.7362717" lon="8.9708773"><ele>349.2857142857143</ele><time>2026-04-18T07:31:37.086Z</time></trkpt><trkpt lat="45.7363365" lon="8.9708912"><ele>350.57142857142856</ele><time>2026-04-18T07:31:40.98Z</time></trkpt><trkpt lat="45.7364021" lon="8.9709161"><ele>351.8571428571429</ele><time>2026-04-18T07:31:45.083Z</time></trkpt><trkpt lat="45.7364696" lon="8.9709355"><ele>353.1428571428571</ele><time>2026-04-18T07:31:49.08Z</time></trkpt><trkpt lat="45.736535" lon="8.9709763"><ele>354.42857142857144</ele><time>2026-04-18T07:31:53.058Z</time></trkpt><trkpt lat="45.7366017" lon="8.9710065"><ele>355.7142857142857</ele><time>2026-04-18T07:31:57.082Z</time></trkpt><trkpt lat="45.7366719" lon="8.9710147"><ele>357.0</ele><time>2026-04-18T07:32:01.138Z</time></trkpt><trkpt lat="45.7367369" lon="8.9710431"><ele>357.0</ele><time>2026-04-18T07:32:05.292Z</time></trkpt><trkpt lat="45.7367721" lon="8.9711231"><ele>357.0</ele><time>2026-04-18T07:32:09.301Z</time></trkpt><trkpt lat="45.736812" lon="8.9712089"><ele>357.0</ele><time>2026-04-18T07:32:15.372Z</time></trkpt><trkpt lat="45.7368595" lon="8.9712749"><ele>357.0</ele><time>2026-04-18T07:32:20.297Z</time></trkpt><trkpt lat="45.7369096" lon="8.9713446"><ele>357.0</ele><time>2026-04-18T07:32:24.306Z</time></trkpt><trkpt lat="45.7369504" lon="8.9714146"><ele>357.0</ele><time>2026-04-18T07:32:29.345Z</time></trkpt><trkpt lat="45.7370086" lon="8.9714844"><ele>357.0</ele><time>2026-04-18T07:32:34.28Z</time></trkpt><trkpt lat="45.7370555" lon="8.9715476"><ele>356.42857142857144</ele><time>2026-04-18T07:32:38.177Z</time></trkpt><trkpt lat="45.7370949" lon="8.971619"><ele>355.8571428571429</ele><time>2026-04-18T07:32:42.305Z</time></trkpt><trkpt lat="45.7371409" lon="8.9716906"><ele>355.2857142857143</ele><time>2026-04-18T07:32:47.328Z</time></trkpt><trkpt lat="45.7371885" lon="8.9717832"><ele>354.7142857142857</ele><time>2026-04-18T07:32:53.284Z</time></trkpt><trkpt lat="45.7372512" lon="8.9718562"><ele>354.14285714285717</ele><time>2026-04-18T07:32:58.324Z</time></trkpt><trkpt lat="45.7373106" lon="8.9719139"><ele>353.57142857142856</ele><time>2026-04-18T07:33:04.279Z</time></trkpt><trkpt lat="45.7373723" lon="8.9719803"><ele>353.0</ele><time>2026-04-18T07:33:10.35Z</time></trkpt><trkpt lat="45.7374393" lon="8.9720472"><ele>353.85714285714283</ele><time>2026-04-18T07:33:15.279Z</time></trkpt><trkpt lat="45.7375027" lon="8.9720925"><ele>354.7142857142857</ele><time>2026-04-18T07:33:19.284Z</time></trkpt><trkpt lat="45.7375659" lon="8.9721501"><ele>355.57142857142856</ele><time>2026-04-18T07:33:23.292Z</time></trkpt><trkpt lat="45.73763" lon="8.9722011"><ele>356.42857142857144</ele><time>2026-04-18T07:33:27.203Z</time></trkpt><trkpt lat="45.7377019" lon="8.9722478"><ele>357.28571428571433</ele><time>2026-04-18T07:33:32.301Z</time></trkpt><trkpt lat="45.7377647" lon="8.9722809"><ele>358.14285714285717</ele><time>2026-04-18T07:33:36.338Z</time></trkpt><trkpt lat="45.7378299" lon="8.9722997"><ele>359.0</ele><time>2026-04-18T07:33:39.879Z</time></trkpt><trkpt lat="45.737902" lon="8.9723059"><ele>359.0</ele><time>2026-04-18T07:33:44.364Z</time></trkpt><trkpt lat="45.7379724" lon="8.9723243"><ele>359.0</ele><time>2026-04-18T07:33:50.323Z</time></trkpt><trkpt lat="45.7380407" lon="8.9723478"><ele>359.0</ele><time>2026-04-18T07:33:55.362Z</time></trkpt><trkpt lat="45.7381158" lon="8.9723699"><ele>359.0</ele><time>2026-04-18T07:33:59.371Z</time></trkpt><trkpt lat="45.7381863" lon="8.9723996"><ele>359.0</ele><time>2026-04-18T07:34:03.38Z</time></trkpt><trkpt lat="45.7382501" lon="8.9724117"><ele>359.0</ele><time>2026-04-18T07:34:07.389Z</time></trkpt><trkpt lat="45.7383201" lon="8.9724465"><ele>359.0</ele><time>2026-04-18T07:34:12.34Z</time></trkpt><trkpt lat="45.7383837" lon="8.972476"><ele>359.0</ele><time>2026-04-18T07:34:16.281Z</time></trkpt><trkpt lat="45.7384563" lon="8.9725102"><ele>359.0</ele><time>2026-04-18T07:34:21.364Z</time></trkpt><trkpt lat="45.7385246" lon="8.9725071"><ele>359.0</ele><time>2026-04-18T07:34:25.371Z</time></trkpt><trkpt lat="45.7385976" lon="8.9724932"><ele>359.0</ele><time>2026-04-18T07:34:29.279Z</time></trkpt><trkpt lat="45.7386685" lon="8.9724888"><ele>359.0</ele><time>2026-04-18T07:34:33.279Z</time></trkpt><trkpt lat="45.7387331" lon="8.9724715"><ele>359.0</ele><time>2026-04-18T07:34:37.282Z</time></trkpt><trkpt lat="45.7387973" lon="8.9724531"><ele>359.0</ele><time>2026-04-18T07:34:42.277Z</time></trkpt><trkpt lat="45.738864" lon="8.9724644"><ele>359.0</ele><time>2026-04-18T07:34:47.297Z</time></trkpt><trkpt lat="45.7389326" lon="8.9724663"><ele>359.0</ele><time>2026-04-18T07:34:52.384Z</time></trkpt><trkpt lat="45.7390087" lon="8.972454"><ele>359.0</ele><time>2026-04-18T07:34:58.357Z</time></trkpt><trkpt lat="45.7390705" lon="8.9724301"><ele>359.0</ele><time>2026-04-18T07:35:02.366Z</time></trkpt><trkpt lat="45.7391195" lon="8.9723632"><ele>359.0</ele><time>2026-04-18T07:35:07.291Z</time></trkpt><trkpt lat="45.7391578" lon="8.972277"><ele>359.0</ele><time>2026-04-18T07:35:12.218Z</time></trkpt><trkpt lat="45.7391912" lon="8.9721918"><ele>359.0</ele><time>2026-04-18T07:35:16.298Z</time></trkpt><trkpt lat="45.7391993" lon="8.9720949"><ele>359.0</ele><time>2026-04-18T07:35:21.299Z</time></trkpt><trkpt lat="45.7391929" lon="8.9719879"><ele>359.0</ele><time>2026-04-18T07:35:26.358Z</time></trkpt><trkpt lat="45.7392472" lon="8.9719278"><ele>359.0</ele><time>2026-04-18T07:35:36.383Z</time></trkpt><trkpt lat="45.7393046" lon="8.9718808"><ele>359.0</ele><time>2026-04-18T07:35:43.369Z</time></trkpt><trkpt lat="45.7393642" lon="8.9718231"><ele>359.0</ele><time>2026-04-18T07:35:48.294Z</time></trkpt><trkpt lat="45.7394272" lon="8.971768"><ele>359.0</ele><time>2026-04-18T07:35:53.206Z</time></trkpt><trkpt lat="45.7394868" lon="8.9717313"><ele>359.0</ele><time>2026-04-18T07:35:57.317Z</time></trkpt><trkpt lat="45.7395625" lon="8.9717183"><ele>359.1666666666667</ele><time>2026-04-18T07:36:02.386Z</time></trkpt><trkpt lat="45.7396341" lon="8.9717146"><ele>359.33333333333337</ele><time>2026-04-18T07:36:08.338Z</time></trkpt><trkpt lat="45.73971" lon="8.9716568"><ele>359.5</ele><time>2026-04-18T07:36:13.398Z</time></trkpt><trkpt lat="45.7397692" lon="8.9716077"><ele>359.6666666666667</ele><time>2026-04-18T07:36:17.386Z</time></trkpt><trkpt lat="45.7398329" lon="8.9715752"><ele>359.8333333333333</ele><time>2026-04-18T07:36:21.281Z</time></trkpt><trkpt lat="45.7399013" lon="8.9715615"><ele>360.0</ele><time>2026-04-18T07:36:27.303Z</time></trkpt><trkpt lat="45.739985" lon="8.971525"><ele>360.2857142857143</ele><time>2026-04-18T07:37:37.279Z</time></trkpt><trkpt lat="45.74005" lon="8.97144"><ele>360.5714285714286</ele><time>2026-04-18T07:39:24.281Z</time></trkpt><trkpt lat="45.74012" lon="8.9714"><ele>360.8571428571429</ele><time>2026-04-18T07:39:31.279Z</time></trkpt><trkpt lat="45.7401817" lon="8.9713667"><ele>361.1428571428571</ele><time>2026-04-18T07:39:36.28Z</time></trkpt><trkpt lat="45.7402506" lon="8.9713436"><ele>361.42857142857144</ele><time>2026-04-18T07:39:42.301Z</time></trkpt><trkpt lat="45.7403162" lon="8.9713222"><ele>361.7142857142857</ele><time>2026-04-18T07:39:47.301Z</time></trkpt><trkpt lat="45.7403779" lon="8.9712994"><ele>362.0</ele><time>2026-04-18T07:39:51.259Z</time></trkpt><trkpt lat="45.7404384" lon="8.9712521"><ele>362.0</ele><time>2026-04-18T07:39:55.282Z</time></trkpt><trkpt lat="45.7405045" lon="8.9712196"><ele>362.0</ele><time>2026-04-18T07:40:00.198Z</time></trkpt><trkpt lat="45.7405721" lon="8.9712214"><ele>362.0</ele><time>2026-04-18T07:40:04.303Z</time></trkpt><trkpt lat="45.7406412" lon="8.9712374"><ele>362.0</ele><time>2026-04-18T07:40:08.32Z</time></trkpt><trkpt lat="45.7407148" lon="8.971228"><ele>362.0</ele><time>2026-04-18T07:40:12.28Z</time></trkpt><trkpt lat="45.7407776" lon="8.9711933"><ele>362.0</ele><time>2026-04-18T07:40:15.301Z</time></trkpt><trkpt lat="45.7408428" lon="8.9711721"><ele>362.0</ele><time>2026-04-18T07:40:18.261Z</time></trkpt><trkpt lat="45.7409234" lon="8.9711532"><ele>362.0</ele><time>2026-04-18T07:40:22.28Z</time></trkpt><trkpt lat="45.7409968" lon="8.9711466"><ele>362.0</ele><time>2026-04-18T07:40:27.302Z</time></trkpt><trkpt lat="45.7410739" lon="8.9711232"><ele>362.0</ele><time>2026-04-18T07:40:32.342Z</time></trkpt><trkpt lat="45.7411494" lon="8.9711215"><ele>362.0</ele><time>2026-04-18T07:40:36.351Z</time></trkpt><trkpt lat="45.7412168" lon="8.9711184"><ele>362.0</ele><time>2026-04-18T07:40:40.299Z</time></trkpt><trkpt lat="45.7412939" lon="8.9711198"><ele>362.0</ele><time>2026-04-18T07:40:45.381Z</time></trkpt><trkpt lat="45.7413618" lon="8.9711304"><ele>362.0</ele><time>2026-04-18T07:40:51.355Z</time></trkpt><trkpt lat="45.7414373" lon="8.9711253"><ele>361.85714285714283</ele><time>2026-04-18T07:40:56.4Z</time></trkpt><trkpt lat="45.7415044" lon="8.9711336"><ele>361.71428571428567</ele><time>2026-04-18T07:41:00.407Z</time></trkpt><trkpt lat="45.741575" lon="8.9711377"><ele>361.57142857142856</ele><time>2026-04-18T07:41:04.404Z</time></trkpt><trkpt lat="45.7416412" lon="8.9711545"><ele>361.42857142857144</ele><time>2026-04-18T07:41:08.441Z</time></trkpt><trkpt lat="45.741722" lon="8.9711652"><ele>361.2857142857143</ele><time>2026-04-18T07:41:13.346Z</time></trkpt><trkpt lat="45.7417887" lon="8.9711682"><ele>361.14285714285717</ele><time>2026-04-18T07:41:17.354Z</time></trkpt><trkpt lat="45.7418579" lon="8.9711757"><ele>361.0</ele><time>2026-04-18T07:41:21.363Z</time></trkpt><trkpt lat="45.7419213" lon="8.971193"><ele>361.0</ele><time>2026-04-18T07:41:25.372Z</time></trkpt><trkpt lat="45.7419885" lon="8.9712172"><ele>361.0</ele><time>2026-04-18T07:41:29.28Z</time></trkpt><trkpt lat="45.742058" lon="8.9712515"><ele>361.0</ele><time>2026-04-18T07:41:34.161Z</time></trkpt><trkpt lat="45.7421262" lon="8.9712931"><ele>361.0</ele><time>2026-04-18T07:41:39.081Z</time></trkpt><trkpt lat="45.742188" lon="8.9713273"><ele>361.0</ele><time>2026-04-18T07:41:43.185Z</time></trkpt><trkpt lat="45.7422497" lon="8.9713576"><ele>361.0</ele><time>2026-04-18T07:41:47.104Z</time></trkpt><trkpt lat="45.742322" lon="8.9713541"><ele>361.0</ele><time>2026-04-18T07:41:52.205Z</time></trkpt><trkpt lat="45.742391" lon="8.9713303"><ele>361.0</ele><time>2026-04-18T07:41:57.182Z</time></trkpt><trkpt lat="45.7424606" lon="8.9712876"><ele>361.0</ele><time>2026-04-18T07:42:01.163Z</time></trkpt><trkpt lat="45.7425276" lon="8.9712573"><ele>361.0</ele><time>2026-04-18T07:42:05.201Z</time></trkpt><trkpt lat="45.7425986" lon="8.9712336"><ele>361.0</ele><time>2026-04-18T07:42:09.238Z</time></trkpt><trkpt lat="45.7426622" lon="8.9711776"><ele>361.0</ele><time>2026-04-18T07:42:13.365Z</time></trkpt><trkpt lat="45.7426969" lon="8.9710991"><ele>361.0</ele><time>2026-04-18T07:42:17.242Z</time></trkpt><trkpt lat="45.7426926" lon="8.9710053"><ele>361.0</ele><time>2026-04-18T07:42:21.403Z</time></trkpt><trkpt lat="45.7426804" lon="8.9709055"><ele>360.8571428571429</ele><time>2026-04-18T07:42:27.598Z</time></trkpt><trkpt lat="45.7426915" lon="8.9708099"><ele>360.71428571428567</ele><time>2026-04-18T07:42:37.181Z</time></trkpt><trkpt lat="45.7427109" lon="8.9707186"><ele>360.57142857142856</ele><time>2026-04-18T07:42:45.138Z</time></trkpt><trkpt lat="45.7427367" lon="8.9706255"><ele>360.42857142857144</ele><time>2026-04-18T07:42:55.286Z</time></trkpt><trkpt lat="45.7427789" lon="8.9705541"><ele>360.28571428571433</ele><time>2026-04-18T07:43:02.281Z</time></trkpt><trkpt lat="45.7428461" lon="8.9705489"><ele>360.1428571428571</ele><time>2026-04-18T07:43:10.291Z</time></trkpt><trkpt lat="45.7429103" lon="8.9705711"><ele>360.0</ele><time>2026-04-18T07:43:16.28Z</time></trkpt><trkpt lat="45.7429337" lon="8.9706655"><ele>359.7142857142857</ele><time>2026-04-18T07:43:22.318Z</time></trkpt><trkpt lat="45.7429346" lon="8.9707687"><ele>359.42857142857144</ele><time>2026-04-18T07:43:28.28Z</time></trkpt><trkpt lat="45.7429721" lon="8.970843"><ele>359.14285714285717</ele><time>2026-04-18T07:43:33.314Z</time></trkpt><trkpt lat="45.7430351" lon="8.9708634"><ele>358.8571428571429</ele><time>2026-04-18T07:43:41.243Z</time></trkpt><trkpt lat="45.7430559" lon="8.970764"><ele>358.57142857142856</ele><time>2026-04-18T07:43:45.18Z</time></trkpt><trkpt lat="45.7430712" lon="8.9706697"><ele>358.28571428571433</ele><time>2026-04-18T07:43:49.199Z</time></trkpt><trkpt lat="45.7430932" lon="8.970569"><ele>358.0</ele><time>2026-04-18T07:43:54.16Z</time></trkpt><trkpt lat="45.7431322" lon="8.9704738"><ele>357.42857142857144</ele><time>2026-04-18T07:43:59.142Z</time></trkpt><trkpt lat="45.7431946" lon="8.9704284"><ele>356.8571428571429</ele><time>2026-04-18T07:44:04.142Z</time></trkpt><trkpt lat="45.7432658" lon="8.9704031"><ele>356.28571428571433</ele><time>2026-04-18T07:44:09.14Z</time></trkpt><trkpt lat="45.7433333" lon="8.9703541"><ele>355.7142857142857</ele><time>2026-04-18T07:44:14.32Z</time></trkpt><trkpt lat="45.7434013" lon="8.9703863"><ele>355.1428571428571</ele><time>2026-04-18T07:44:24.779Z</time></trkpt><trkpt lat="45.7434662" lon="8.9703974"><ele>354.5714285714286</ele><time>2026-04-18T07:44:28.263Z</time></trkpt><trkpt lat="45.7435444" lon="8.9703938"><ele>354.0</ele><time>2026-04-18T07:44:32.238Z</time></trkpt><trkpt lat="45.7436128" lon="8.9703949"><ele>354.0</ele><time>2026-04-18T07:44:36.24Z</time></trkpt><trkpt lat="45.7436781" lon="8.9703899"><ele>354.0</ele><time>2026-04-18T07:44:40.239Z</time></trkpt><trkpt lat="45.7437535" lon="8.9703818"><ele>354.0</ele><time>2026-04-18T07:44:45.258Z</time></trkpt><trkpt lat="45.7438164" lon="8.970371"><ele>354.0</ele><time>2026-04-18T07:44:49.297Z</time></trkpt><trkpt lat="45.7438919" lon="8.9703641"><ele>354.0</ele><time>2026-04-18T07:44:54.365Z</time></trkpt><trkpt lat="45.7439639" lon="8.9703564"><ele>354.0</ele><time>2026-04-18T07:44:59.319Z</time></trkpt><trkpt lat="45.7440379" lon="8.9703356"><ele>354.0</ele><time>2026-04-18T07:45:04.342Z</time></trkpt><trkpt lat="45.7441035" lon="8.9703069"><ele>354.0</ele><time>2026-04-18T07:45:08.396Z</time></trkpt><trkpt lat="45.7441673" lon="8.9702873"><ele>354.0</ele><time>2026-04-18T07:45:12.377Z</time></trkpt><trkpt lat="45.7442338" lon="8.970273"><ele>354.0</ele><time>2026-04-18T07:45:16.358Z</time></trkpt><trkpt lat="45.7442979" lon="8.9702561"><ele>354.0</ele><time>2026-04-18T07:45:20.357Z</time></trkpt><trkpt lat="45.7443619" lon="8.9702428"><ele>354.0</ele><time>2026-04-18T07:45:24.384Z</time></trkpt><trkpt lat="45.7444268" lon="8.9702363"><ele>354.0</ele><time>2026-04-18T07:45:28.384Z</time></trkpt><trkpt lat="45.7444959" lon="8.970237"><ele>354.0</ele><time>2026-04-18T07:45:32.398Z</time></trkpt><trkpt lat="45.7445612" lon="8.970246"><ele>354.8571428571429</ele><time>2026-04-18T07:45:36.38Z</time></trkpt><trkpt lat="45.744625" lon="8.9702584"><ele>355.71428571428567</ele><time>2026-04-18T07:45:40.384Z</time></trkpt><trkpt lat="45.74469" lon="8.9702706"><ele>356.57142857142856</ele><time>2026-04-18T07:45:44.352Z</time></trkpt><trkpt lat="45.7447549" lon="8.9703027"><ele>357.42857142857144</ele><time>2026-04-18T07:45:48.382Z</time></trkpt><trkpt lat="45.7448112" lon="8.9703672"><ele>358.28571428571433</ele><time>2026-04-18T07:45:52.343Z</time></trkpt><trkpt lat="45.7448556" lon="8.9704342"><ele>359.1428571428571</ele><time>2026-04-18T07:45:56.379Z</time></trkpt><trkpt lat="45.7449082" lon="8.9705112"><ele>360.0</ele><time>2026-04-18T07:46:01.305Z</time></trkpt><trkpt lat="45.7449662" lon="8.9705886"><ele>360.0</ele><time>2026-04-18T07:46:06.345Z</time></trkpt><trkpt lat="45.7450185" lon="8.9706512"><ele>360.0</ele><time>2026-04-18T07:46:10.354Z</time></trkpt><trkpt lat="45.7450817" lon="8.9706984"><ele>360.0</ele><time>2026-04-18T07:46:15.279Z</time></trkpt><trkpt lat="45.7451468" lon="8.9706928"><ele>360.0</ele><time>2026-04-18T07:46:20.319Z</time></trkpt><trkpt lat="45.7452194" lon="8.9706836"><ele>360.0</ele><time>2026-04-18T07:46:26.28Z</time></trkpt><trkpt lat="45.7452914" lon="8.9706611"><ele>360.0</ele><time>2026-04-18T07:46:31.316Z</time></trkpt><trkpt lat="45.7453621" lon="8.9706396"><ele>360.0</ele><time>2026-04-18T07:46:37.28Z</time></trkpt><trkpt lat="45.7454313" lon="8.9706263"><ele>360.57142857142856</ele><time>2026-04-18T07:46:42.219Z</time></trkpt><trkpt lat="45.7454905" lon="8.9705919"><ele>361.14285714285717</ele><time>2026-04-18T07:46:46.288Z</time></trkpt><trkpt lat="45.7455571" lon="8.9705496"><ele>361.7142857142857</ele><time>2026-04-18T07:46:50.342Z</time></trkpt><trkpt lat="45.7456251" lon="8.9705032"><ele>362.2857142857143</ele><time>2026-04-18T07:46:54.38Z</time></trkpt><trkpt lat="45.7456867" lon="8.9704542"><ele>362.8571428571429</ele><time>2026-04-18T07:46:58.349Z</time></trkpt><trkpt lat="45.7457451" lon="8.9704178"><ele>363.42857142857144</ele><time>2026-04-18T07:47:02.485Z</time></trkpt><trkpt lat="45.7458164" lon="8.9703902"><ele>364.0</ele><time>2026-04-18T07:47:07.58Z</time></trkpt><trkpt lat="45.7458789" lon="8.9703481"><ele>364.0</ele><time>2026-04-18T07:47:12.66Z</time></trkpt><trkpt lat="45.7459479" lon="8.9703025"><ele>364.0</ele><time>2026-04-18T07:47:17.819Z</time></trkpt><trkpt lat="45.7460166" lon="8.970273"><ele>364.0</ele><time>2026-04-18T07:47:23.098Z</time></trkpt><trkpt lat="45.7460762" lon="8.9702413"><ele>364.0</ele><time>2026-04-18T07:47:33.285Z</time></trkpt><trkpt lat="45.7461342" lon="8.9701996"><ele>364.0</ele><time>2026-04-18T07:47:46.297Z</time></trkpt><trkpt lat="45.7462083" lon="8.9701561"><ele>364.0</ele><time>2026-04-18T07:47:50.336Z</time></trkpt><trkpt lat="45.746268" lon="8.9701218"><ele>364.0</ele><time>2026-04-18T07:47:54.279Z</time></trkpt><trkpt lat="45.7463417" lon="8.970096"><ele>364.14285714285717</ele><time>2026-04-18T07:47:58.277Z</time></trkpt><trkpt lat="45.7464243" lon="8.9700852"><ele>364.2857142857143</ele><time>2026-04-18T07:48:02.278Z</time></trkpt><trkpt lat="45.7464919" lon="8.9700722"><ele>364.42857142857144</ele><time>2026-04-18T07:48:06.278Z</time></trkpt><trkpt lat="45.7465629" lon="8.9700489"><ele>364.57142857142856</ele><time>2026-04-18T07:48:11.318Z</time></trkpt><trkpt lat="45.7466259" lon="8.970039"><ele>364.7142857142857</ele><time>2026-04-18T07:48:15.327Z</time></trkpt><trkpt lat="45.7466888" lon="8.9700288"><ele>364.8571428571429</ele><time>2026-04-18T07:48:19.337Z</time></trkpt><trkpt lat="45.7467631" lon="8.9700093"><ele>365.0</ele><time>2026-04-18T07:48:24.28Z</time></trkpt><trkpt lat="45.7468258" lon="8.9699855"><ele>366.28571428571433</ele><time>2026-04-18T07:48:28.28Z</time></trkpt><trkpt lat="45.7468927" lon="8.9699744"><ele>367.57142857142856</ele><time>2026-04-18T07:48:32.282Z</time></trkpt><trkpt lat="45.7469602" lon="8.96997"><ele>368.8571428571429</ele><time>2026-04-18T07:48:36.291Z</time></trkpt><trkpt lat="45.7470326" lon="8.9699586"><ele>370.14285714285717</ele><time>2026-04-18T07:48:41.219Z</time></trkpt><trkpt lat="45.7471033" lon="8.9699346"><ele>371.42857142857144</ele><time>2026-04-18T07:48:46.221Z</time></trkpt><trkpt lat="45.7471825" lon="8.9699402"><ele>372.7142857142857</ele><time>2026-04-18T07:48:51.338Z</time></trkpt><trkpt lat="45.7472148" lon="8.9698591"><ele>374.0</ele><time>2026-04-18T07:48:56.339Z</time></trkpt><trkpt lat="45.7472509" lon="8.9697843"><ele>374.0</ele><time>2026-04-18T07:49:03.327Z</time></trkpt><trkpt lat="45.7473105" lon="8.9697539"><ele>374.0</ele><time>2026-04-18T07:49:08.367Z</time></trkpt><trkpt lat="45.7473722" lon="8.9696982"><ele>374.0</ele><time>2026-04-18T07:49:13.294Z</time></trkpt><trkpt lat="45.7474369" lon="8.9696433"><ele>374.0</ele><time>2026-04-18T07:49:17.303Z</time></trkpt><trkpt lat="45.7475066" lon="8.9696004"><ele>374.0</ele><time>2026-04-18T07:49:21.312Z</time></trkpt><trkpt lat="45.7475791" lon="8.9695576"><ele>374.0</ele><time>2026-04-18T07:49:25.322Z</time></trkpt><trkpt lat="45.7476533" lon="8.9695284"><ele>374.0</ele><time>2026-04-18T07:49:29.331Z</time></trkpt><trkpt lat="45.747716" lon="8.9695085"><ele>375.85714285714283</ele><time>2026-04-18T07:49:33.176Z</time></trkpt><trkpt lat="45.7477763" lon="8.9694825"><ele>377.7142857142857</ele><time>2026-04-18T07:49:37.261Z</time></trkpt><trkpt lat="45.7478317" lon="8.969435"><ele>379.57142857142856</ele><time>2026-04-18T07:49:41.223Z</time></trkpt><trkpt lat="45.7478962" lon="8.9693977"><ele>381.42857142857144</ele><time>2026-04-18T07:49:45.261Z</time></trkpt><trkpt lat="45.7479636" lon="8.969389"><ele>383.28571428571433</ele><time>2026-04-18T07:49:50.617Z</time></trkpt><trkpt lat="45.7480423" lon="8.9693811"><ele>385.14285714285717</ele><time>2026-04-18T07:49:56.367Z</time></trkpt><trkpt lat="45.7481121" lon="8.9693473"><ele>387.0</ele><time>2026-04-18T07:50:05.356Z</time></trkpt><trkpt lat="45.7481829" lon="8.9693151"><ele>387.0</ele><time>2026-04-18T07:50:11.28Z</time></trkpt><trkpt lat="45.748248" lon="8.9693062"><ele>387.0</ele><time>2026-04-18T07:50:44.366Z</time></trkpt><trkpt lat="45.7483261" lon="8.969304"><ele>387.0</ele><time>2026-04-18T07:50:48.34Z</time></trkpt><trkpt lat="45.7484" lon="8.9692528"><ele>387.0</ele><time>2026-04-18T07:50:52.215Z</time></trkpt><trkpt lat="45.7484686" lon="8.9692056"><ele>387.0</ele><time>2026-04-18T07:50:56.12Z</time></trkpt><trkpt lat="45.7485306" lon="8.9691683"><ele>387.0</ele><time>2026-04-18T07:51:00.1Z</time></trkpt><trkpt lat="45.7485962" lon="8.9691405"><ele>387.0</ele><time>2026-04-18T07:51:05.022Z</time></trkpt><trkpt lat="45.7486673" lon="8.9691067"><ele>385.14285714285717</ele><time>2026-04-18T07:51:10.836Z</time></trkpt><trkpt lat="45.7487369" lon="8.9690696"><ele>383.28571428571433</ele><time>2026-04-18T07:51:14.72Z</time></trkpt><trkpt lat="45.748795" lon="8.9690261"><ele>381.42857142857144</ele><time>2026-04-18T07:51:18.616Z</time></trkpt><trkpt lat="45.7488504" lon="8.9689678"><ele>379.57142857142856</ele><time>2026-04-18T07:51:23.523Z</time></trkpt><trkpt lat="45.7489061" lon="8.9689218"><ele>377.7142857142857</ele><time>2026-04-18T07:51:28.358Z</time></trkpt><trkpt lat="45.7489646" lon="8.9688694"><ele>375.85714285714283</ele><time>2026-04-18T07:51:33.28Z</time></trkpt><trkpt lat="45.7490198" lon="8.9688179"><ele>374.0</ele><time>2026-04-18T07:51:37.237Z</time></trkpt><trkpt lat="45.7490734" lon="8.968765"><ele>374.0</ele><time>2026-04-18T07:51:41.198Z</time></trkpt><trkpt lat="45.7491136" lon="8.9686932"><ele>374.0</ele><time>2026-04-18T07:51:45.122Z</time></trkpt><trkpt lat="45.7491756" lon="8.9686243"><ele>374.0</ele><time>2026-04-18T07:51:50.352Z</time></trkpt><trkpt lat="45.749247" lon="8.9685895"><ele>374.0</ele><time>2026-04-18T07:51:56.309Z</time></trkpt><trkpt lat="45.7493081" lon="8.9685359"><ele>374.0</ele><time>2026-04-18T07:52:01.349Z</time></trkpt><trkpt lat="45.7493576" lon="8.9684706"><ele>374.0</ele><time>2026-04-18T07:52:05.358Z</time></trkpt><trkpt lat="45.7494016" lon="8.9683959"><ele>374.0</ele><time>2026-04-18T07:52:09.367Z</time></trkpt><trkpt lat="45.7494475" lon="8.9683043"><ele>372.7142857142857</ele><time>2026-04-18T07:52:15.283Z</time></trkpt><trkpt lat="45.7494793" lon="8.9682176"><ele>371.42857142857144</ele><time>2026-04-18T07:52:19.398Z</time></trkpt><trkpt lat="45.7495413" lon="8.9681634"><ele>370.14285714285717</ele><time>2026-04-18T07:52:26.36Z</time></trkpt><trkpt lat="45.749592" lon="8.9680932"><ele>368.8571428571429</ele><time>2026-04-18T07:52:33.344Z</time></trkpt><trkpt lat="45.749645" lon="8.9680214"><ele>367.57142857142856</ele><time>2026-04-18T07:52:38.298Z</time></trkpt><trkpt lat="45.7497218" lon="8.9680215"><ele>366.28571428571433</ele><time>2026-04-18T07:52:42.357Z</time></trkpt><trkpt lat="45.7497939" lon="8.9680067"><ele>365.0</ele><time>2026-04-18T07:52:48.314Z</time></trkpt><trkpt lat="45.7498511" lon="8.9679602"><ele>365.00000000000006</ele><time>2026-04-18T07:52:53.239Z</time></trkpt><trkpt lat="45.7499179" lon="8.9679404"><ele>365.0</ele><time>2026-04-18T07:52:59.279Z</time></trkpt><trkpt lat="45.7499844" lon="8.9679251"><ele>365.0</ele><time>2026-04-18T07:53:05.381Z</time></trkpt><trkpt lat="45.7500454" lon="8.9678884"><ele>365.0</ele><time>2026-04-18T07:53:11.38Z</time></trkpt><trkpt lat="45.7501022" lon="8.9678486"><ele>365.0</ele><time>2026-04-18T07:53:18.079Z</time></trkpt><trkpt lat="45.7501613" lon="8.9677848"><ele>365.00000000000006</ele><time>2026-04-18T07:53:25.312Z</time></trkpt><trkpt lat="45.7502221" lon="8.9677413"><ele>365.0</ele><time>2026-04-18T07:53:36.24Z</time></trkpt><trkpt lat="45.7502819" lon="8.9676969"><ele>366.28571428571433</ele><time>2026-04-18T07:53:44.327Z</time></trkpt><trkpt lat="45.7503465" lon="8.9676417"><ele>367.57142857142856</ele><time>2026-04-18T07:53:51.314Z</time></trkpt><trkpt lat="45.7504127" lon="8.9676256"><ele>368.8571428571429</ele><time>2026-04-18T07:54:00.363Z</time></trkpt><trkpt lat="45.7504782" lon="8.9676038"><ele>370.14285714285717</ele><time>2026-04-18T07:54:08.281Z</time></trkpt><trkpt lat="45.7505427" lon="8.9675767"><ele>371.42857142857144</ele><time>2026-04-18T07:54:14.283Z</time></trkpt><trkpt lat="45.7506101" lon="8.9675629"><ele>372.7142857142857</ele><time>2026-04-18T07:54:20.243Z</time></trkpt><trkpt lat="45.7506858" lon="8.9675436"><ele>374.0</ele><time>2026-04-18T07:54:27.383Z</time></trkpt><trkpt lat="45.7507592" lon="8.9675211"><ele>375.1428571428571</ele><time>2026-04-18T07:54:32.242Z</time></trkpt><trkpt lat="45.7508275" lon="8.9674957"><ele>376.28571428571433</ele><time>2026-04-18T07:54:38.28Z</time></trkpt><trkpt lat="45.7508967" lon="8.9674987"><ele>377.42857142857144</ele><time>2026-04-18T07:54:44.298Z</time></trkpt><trkpt lat="45.7509703" lon="8.9674815"><ele>378.57142857142856</ele><time>2026-04-18T07:54:49.28Z</time></trkpt><trkpt lat="45.7510349" lon="8.9674515"><ele>379.71428571428567</ele><time>2026-04-18T07:54:54.314Z</time></trkpt><trkpt lat="45.7511011" lon="8.9674241"><ele>380.8571428571429</ele><time>2026-04-18T07:55:00.377Z</time></trkpt><trkpt lat="45.7511737" lon="8.9674001"><ele>382.0</ele><time>2026-04-18T07:55:05.31Z</time></trkpt><trkpt lat="45.7512359" lon="8.9673298"><ele>382.8571428571429</ele><time>2026-04-18T07:55:10.35Z</time></trkpt><trkpt lat="45.7512849" lon="8.9672581"><ele>383.71428571428567</ele><time>2026-04-18T07:55:15.39Z</time></trkpt><trkpt lat="45.7513396" lon="8.9672074"><ele>384.57142857142856</ele><time>2026-04-18T07:55:20.318Z</time></trkpt><trkpt lat="45.7513752" lon="8.9671312"><ele>385.42857142857144</ele><time>2026-04-18T07:55:26.386Z</time></trkpt><trkpt lat="45.7514206" lon="8.9670663"><ele>386.28571428571433</ele><time>2026-04-18T07:55:31.311Z</time></trkpt><trkpt lat="45.7514738" lon="8.9670072"><ele>387.1428571428571</ele><time>2026-04-18T07:55:35.32Z</time></trkpt><trkpt lat="45.7515344" lon="8.9669222"><ele>388.0</ele><time>2026-04-18T07:55:39.329Z</time></trkpt><trkpt lat="45.7515835" lon="8.9668337"><ele>388.0</ele><time>2026-04-18T07:55:43.338Z</time></trkpt><trkpt lat="45.7516213" lon="8.9667578"><ele>388.0</ele><time>2026-04-18T07:55:48.261Z</time></trkpt><trkpt lat="45.7516719" lon="8.9666884"><ele>388.0</ele><time>2026-04-18T07:55:54.337Z</time></trkpt><trkpt lat="45.7517228" lon="8.9666326"><ele>388.0</ele><time>2026-04-18T07:55:58.383Z</time></trkpt><trkpt lat="45.7517831" lon="8.9665812"><ele>388.0</ele><time>2026-04-18T07:56:03.357Z</time></trkpt><trkpt lat="45.7518428" lon="8.9665245"><ele>388.0</ele><time>2026-04-18T07:56:08.377Z</time></trkpt><trkpt lat="45.7519023" lon="8.9664766"><ele>388.0</ele><time>2026-04-18T07:56:11.398Z</time></trkpt><trkpt lat="45.7519724" lon="8.9664264"><ele>388.7142857142857</ele><time>2026-04-18T07:56:15.397Z</time></trkpt><trkpt lat="45.7520406" lon="8.9663834"><ele>389.42857142857144</ele><time>2026-04-18T07:56:20.336Z</time></trkpt><trkpt lat="45.7521117" lon="8.9663598"><ele>390.14285714285717</ele><time>2026-04-18T07:56:25.376Z</time></trkpt><trkpt lat="45.7521864" lon="8.9663596"><ele>390.8571428571429</ele><time>2026-04-18T07:56:30.184Z</time></trkpt><trkpt lat="45.7522541" lon="8.9663584"><ele>391.57142857142856</ele><time>2026-04-18T07:56:34.221Z</time></trkpt><trkpt lat="45.7523296" lon="8.9663451"><ele>392.28571428571433</ele><time>2026-04-18T07:56:38.34Z</time></trkpt><trkpt lat="45.7523974" lon="8.9663019"><ele>393.0</ele><time>2026-04-18T07:56:42.328Z</time></trkpt><trkpt lat="45.7524598" lon="8.9662361"><ele>393.00000000000006</ele><time>2026-04-18T07:56:48.398Z</time></trkpt><trkpt lat="45.752528" lon="8.9661891"><ele>393.0</ele><time>2026-04-18T07:56:54.354Z</time></trkpt><trkpt lat="45.7525838" lon="8.966144"><ele>393.0</ele><time>2026-04-18T07:56:58.363Z</time></trkpt><trkpt lat="45.7526386" lon="8.9660946"><ele>393.0</ele><time>2026-04-18T07:57:03.278Z</time></trkpt><trkpt lat="45.7526852" lon="8.9660278"><ele>393.0</ele><time>2026-04-18T07:57:09.3Z</time></trkpt><trkpt lat="45.7527276" lon="8.9659581"><ele>393.00000000000006</ele><time>2026-04-18T07:57:13.368Z</time></trkpt><trkpt lat="45.7527743" lon="8.9658784"><ele>393.0</ele><time>2026-04-18T07:57:17.377Z</time></trkpt><trkpt lat="45.7528057" lon="8.9657838"><ele>392.7142857142857</ele><time>2026-04-18T07:57:21.386Z</time></trkpt><trkpt lat="45.752827" lon="8.9656838"><ele>392.42857142857144</ele><time>2026-04-18T07:57:26.312Z</time></trkpt><trkpt lat="45.7528422" lon="8.965586"><ele>392.1428571428571</ele><time>2026-04-18T07:57:31.352Z</time></trkpt><trkpt lat="45.7528658" lon="8.9654972"><ele>391.8571428571429</ele><time>2026-04-18T07:57:36.282Z</time></trkpt><trkpt lat="45.7529035" lon="8.9654164"><ele>391.57142857142856</ele><time>2026-04-18T07:57:40.286Z</time></trkpt><trkpt lat="45.7529461" lon="8.9653468"><ele>391.2857142857143</ele><time>2026-04-18T07:57:44.295Z</time></trkpt><trkpt lat="45.7530038" lon="8.9652698"><ele>391.0</ele><time>2026-04-18T07:57:49.285Z</time></trkpt><trkpt lat="45.7530566" lon="8.9651991"><ele>390.99999999999994</ele><time>2026-04-18T07:57:54.305Z</time></trkpt><trkpt lat="45.7531128" lon="8.9651461"><ele>391.0</ele><time>2026-04-18T07:57:58.305Z</time></trkpt><trkpt lat="45.753161" lon="8.9650874"><ele>391.0</ele><time>2026-04-18T07:58:01.321Z</time></trkpt><trkpt lat="45.7532288" lon="8.9650338"><ele>391.0</ele><time>2026-04-18T07:58:05.339Z</time></trkpt><trkpt lat="45.7532879" lon="8.9649953"><ele>391.0</ele><time>2026-04-18T07:58:09.376Z</time></trkpt><trkpt lat="45.7533487" lon="8.9649553"><ele>390.99999999999994</ele><time>2026-04-18T07:58:15.335Z</time></trkpt><trkpt lat="45.7534034" lon="8.9649036"><ele>391.0</ele><time>2026-04-18T07:58:19.344Z</time></trkpt><trkpt lat="45.7534636" lon="8.9648503"><ele>390.85714285714283</ele><time>2026-04-18T07:58:23.353Z</time></trkpt><trkpt lat="45.7535232" lon="8.9648039"><ele>390.7142857142857</ele><time>2026-04-18T07:58:28.319Z</time></trkpt><trkpt lat="45.753586" lon="8.9647502"><ele>390.57142857142856</ele><time>2026-04-18T07:58:33.318Z</time></trkpt><trkpt lat="45.7536497" lon="8.9647007"><ele>390.42857142857144</ele><time>2026-04-18T07:58:38.358Z</time></trkpt><trkpt lat="45.753703" lon="8.9646504"><ele>390.2857142857143</ele><time>2026-04-18T07:58:43.356Z</time></trkpt><trkpt lat="45.7537686" lon="8.9645823"><ele>390.1428571428571</ele><time>2026-04-18T07:58:48.323Z</time></trkpt><trkpt lat="45.753834" lon="8.9645683"><ele>390.0</ele><time>2026-04-18T07:58:52.332Z</time></trkpt><trkpt lat="45.7539036" lon="8.9645583"><ele>389.7142857142857</ele><time>2026-04-18T07:58:57.26Z</time></trkpt><trkpt lat="45.7539617" lon="8.9646143"><ele>389.42857142857144</ele><time>2026-04-18T07:59:03.328Z</time></trkpt><trkpt lat="45.7539655" lon="8.9647083"><ele>389.1428571428571</ele><time>2026-04-18T07:59:09.284Z</time></trkpt><trkpt lat="45.7539549" lon="8.9648003"><ele>388.8571428571429</ele><time>2026-04-18T07:59:14.323Z</time></trkpt><trkpt lat="45.7539472" lon="8.9649045"><ele>388.5714285714286</ele><time>2026-04-18T07:59:21.239Z</time></trkpt><trkpt lat="45.7539696" lon="8.9650124"><ele>388.2857142857143</ele><time>2026-04-18T07:59:28.384Z</time></trkpt><trkpt lat="45.7539797" lon="8.9651132"><ele>388.0</ele><time>2026-04-18T07:59:33.337Z</time></trkpt><trkpt lat="45.753979" lon="8.9652084"><ele>387.0</ele><time>2026-04-18T07:59:37.346Z</time></trkpt><trkpt lat="45.7539813" lon="8.9653135"><ele>386.0</ele><time>2026-04-18T07:59:42.385Z</time></trkpt><trkpt lat="45.7539841" lon="8.9654272"><ele>385.0</ele><time>2026-04-18T07:59:47.299Z</time></trkpt><trkpt lat="45.7540054" lon="8.965522"><ele>384.0</ele><time>2026-04-18T07:59:51.999Z</time></trkpt><trkpt lat="45.7540312" lon="8.965611"><ele>383.0</ele><time>2026-04-18T07:59:56.359Z</time></trkpt><trkpt lat="45.754061" lon="8.9656935"><ele>382.0</ele><time>2026-04-18T08:00:00.242Z</time></trkpt><trkpt lat="45.7540807" lon="8.9657938"><ele>381.0</ele><time>2026-04-18T08:00:05.409Z</time></trkpt><trkpt lat="45.754112" lon="8.9658815"><ele>381.0</ele><time>2026-04-18T08:00:09.302Z</time></trkpt><trkpt lat="45.7541545" lon="8.9659726"><ele>381.0</ele><time>2026-04-18T08:00:14.342Z</time></trkpt><trkpt lat="45.7541776" lon="8.9660694"><ele>381.0</ele><time>2026-04-18T08:00:19.281Z</time></trkpt><trkpt lat="45.7542026" lon="8.9661635"><ele>381.0</ele><time>2026-04-18T08:00:24.307Z</time></trkpt><trkpt lat="45.754264" lon="8.9661943"><ele>381.0</ele><time>2026-04-18T08:00:33.355Z</time></trkpt><trkpt lat="45.7543331" lon="8.9661768"><ele>381.0</ele><time>2026-04-18T08:00:39.312Z</time></trkpt><trkpt lat="45.7543952" lon="8.9661155"><ele>381.0</ele><time>2026-04-18T08:00:45.403Z</time></trkpt><trkpt lat="45.7544475" lon="8.9660564"><ele>381.0</ele><time>2026-04-18T08:00:51.338Z</time></trkpt><trkpt lat="45.7545137" lon="8.9659915"><ele>381.0</ele><time>2026-04-18T08:00:56.378Z</time></trkpt><trkpt lat="45.7545746" lon="8.9659146"><ele>381.0</ele><time>2026-04-18T08:01:00.281Z</time></trkpt><trkpt lat="45.7546288" lon="8.9658407"><ele>381.0</ele><time>2026-04-18T08:01:04.302Z</time></trkpt><trkpt lat="45.7546746" lon="8.9657759"><ele>381.0</ele><time>2026-04-18T08:01:08.29Z</time></trkpt><trkpt lat="45.7547223" lon="8.9656963"><ele>381.0</ele><time>2026-04-18T08:01:13.33Z</time></trkpt><trkpt lat="45.7547739" lon="8.9656286"><ele>381.0</ele><time>2026-04-18T08:01:18.369Z</time></trkpt><trkpt lat="45.754809" lon="8.9655407"><ele>381.2857142857143</ele><time>2026-04-18T08:01:24.261Z</time></trkpt><trkpt lat="45.7548607" lon="8.965474"><ele>381.5714285714286</ele><time>2026-04-18T08:01:29.305Z</time></trkpt><trkpt lat="45.7549203" lon="8.9654032"><ele>381.8571428571429</ele><time>2026-04-18T08:01:35.399Z</time></trkpt><trkpt lat="45.7549804" lon="8.9653318"><ele>382.1428571428571</ele><time>2026-04-18T08:01:40.361Z</time></trkpt><trkpt lat="45.755037" lon="8.9652688"><ele>382.42857142857144</ele><time>2026-04-18T08:01:45.279Z</time></trkpt><trkpt lat="45.7551039" lon="8.965265"><ele>382.7142857142857</ele><time>2026-04-18T08:01:51.356Z</time></trkpt><trkpt lat="45.7551658" lon="8.9652447"><ele>383.0</ele><time>2026-04-18T08:02:02.352Z</time></trkpt><trkpt lat="45.755203" lon="8.9653252"><ele>383.1428571428571</ele><time>2026-04-18T08:02:54.352Z</time></trkpt><trkpt lat="45.7552633" lon="8.9653775"><ele>383.2857142857143</ele><time>2026-04-18T08:02:58.916Z</time></trkpt><trkpt lat="45.7553432" lon="8.9654092"><ele>383.42857142857144</ele><time>2026-04-18T08:03:03.286Z</time></trkpt><trkpt lat="45.7554005" lon="8.9654515"><ele>383.57142857142856</ele><time>2026-04-18T08:03:08.325Z</time></trkpt><trkpt lat="45.7554697" lon="8.9654544"><ele>383.7142857142857</ele><time>2026-04-18T08:03:13.381Z</time></trkpt><trkpt lat="45.7555469" lon="8.9654464"><ele>383.85714285714283</ele><time>2026-04-18T08:03:19.385Z</time></trkpt><trkpt lat="45.7556148" lon="8.9654335"><ele>384.0</ele><time>2026-04-18T08:03:24.361Z</time></trkpt><trkpt lat="45.7556813" lon="8.9654208"><ele>383.99999999999994</ele><time>2026-04-18T08:03:29.286Z</time></trkpt><trkpt lat="45.7557433" lon="8.9653908"><ele>384.0</ele><time>2026-04-18T08:03:34.184Z</time></trkpt><trkpt lat="45.7558187" lon="8.96536"><ele>384.0</ele><time>2026-04-18T08:03:39.377Z</time></trkpt><trkpt lat="45.7558835" lon="8.9653363"><ele>384.0</ele><time>2026-04-18T08:03:43.374Z</time></trkpt><trkpt lat="45.7559471" lon="8.9652982"><ele>384.0</ele><time>2026-04-18T08:03:48.182Z</time></trkpt><trkpt lat="45.7560126" lon="8.9652577"><ele>383.99999999999994</ele><time>2026-04-18T08:03:53.26Z</time></trkpt><trkpt lat="45.7560661" lon="8.9652086"><ele>384.0</ele><time>2026-04-18T08:03:57.345Z</time></trkpt><trkpt lat="45.7561185" lon="8.9651409"><ele>384.1428571428571</ele><time>2026-04-18T08:04:03.304Z</time></trkpt><trkpt lat="45.7561738" lon="8.9650817"><ele>384.2857142857143</ele><time>2026-04-18T08:04:10.29Z</time></trkpt><trkpt lat="45.7562265" lon="8.9650199"><ele>384.42857142857144</ele><time>2026-04-18T08:04:16.282Z</time></trkpt><trkpt lat="45.7562848" lon="8.9649427"><ele>384.57142857142856</ele><time>2026-04-18T08:04:20.358Z</time></trkpt><trkpt lat="45.756339" lon="8.9648638"><ele>384.7142857142857</ele><time>2026-04-18T08:04:24.378Z</time></trkpt><trkpt lat="45.7563972" lon="8.9648087"><ele>384.85714285714283</ele><time>2026-04-18T08:04:28.28Z</time></trkpt><trkpt lat="45.7564637" lon="8.9647795"><ele>385.0</ele><time>2026-04-18T08:04:33.312Z</time></trkpt><trkpt lat="45.7565318" lon="8.9647659"><ele>385.2857142857143</ele><time>2026-04-18T08:04:37.204Z</time></trkpt><trkpt lat="45.7566056" lon="8.9647459"><ele>385.57142857142856</ele><time>2026-04-18T08:04:42.361Z</time></trkpt><trkpt lat="45.7566798" lon="8.9647438"><ele>385.8571428571429</ele><time>2026-04-18T08:04:47.217Z</time></trkpt><trkpt lat="45.7567566" lon="8.9647421"><ele>386.1428571428571</ele><time>2026-04-18T08:04:51.329Z</time></trkpt><trkpt lat="45.7568191" lon="8.964804"><ele>386.42857142857144</ele><time>2026-04-18T08:04:56.417Z</time></trkpt><trkpt lat="45.7568502" lon="8.9648977"><ele>386.7142857142857</ele><time>2026-04-18T08:05:03.321Z</time></trkpt><trkpt lat="45.7568797" lon="8.964994"><ele>387.0</ele><time>2026-04-18T08:05:09.286Z</time></trkpt><trkpt lat="45.7569048" lon="8.9650918"><ele>387.42857142857144</ele><time>2026-04-18T08:05:13.378Z</time></trkpt><trkpt lat="45.7569419" lon="8.9651949"><ele>387.8571428571429</ele><time>2026-04-18T08:05:17.295Z</time></trkpt><trkpt lat="45.7569777" lon="8.9652804"><ele>388.2857142857143</ele><time>2026-04-18T08:05:21.303Z</time></trkpt><trkpt lat="45.7570087" lon="8.9653701"><ele>388.7142857142857</ele><time>2026-04-18T08:05:26.245Z</time></trkpt><trkpt lat="45.7570765" lon="8.9654041"><ele>389.1428571428571</ele><time>2026-04-18T08:05:32.478Z</time></trkpt><trkpt lat="45.7571539" lon="8.9653853"><ele>389.57142857142856</ele><time>2026-04-18T08:05:37.598Z</time></trkpt><trkpt lat="45.7572164" lon="8.9654033"><ele>390.0</ele><time>2026-04-18T08:05:42.2Z</time></trkpt><trkpt lat="45.7572672" lon="8.9654703"><ele>390.0</ele><time>2026-04-18T08:05:48.326Z</time></trkpt><trkpt lat="45.757337" lon="8.965484"><ele>390.0</ele><time>2026-04-18T08:05:55.321Z</time></trkpt><trkpt lat="45.7574055" lon="8.9654796"><ele>390.0</ele><time>2026-04-18T08:06:02.308Z</time></trkpt><trkpt lat="45.7574671" lon="8.965458"><ele>390.0</ele><time>2026-04-18T08:06:07.348Z</time></trkpt><trkpt lat="45.7575163" lon="8.9653998"><ele>390.0</ele><time>2026-04-18T08:06:11.357Z</time></trkpt><trkpt lat="45.7575761" lon="8.9653538"><ele>390.0</ele><time>2026-04-18T08:06:16.282Z</time></trkpt><trkpt lat="45.7576506" lon="8.9653198"><ele>390.0</ele><time>2026-04-18T08:06:21.221Z</time></trkpt><trkpt lat="45.7577194" lon="8.9653033"><ele>390.0</ele><time>2026-04-18T08:06:26.361Z</time></trkpt><trkpt lat="45.7577373" lon="8.9653909"><ele>390.0</ele><time>2026-04-18T08:06:39.301Z</time></trkpt><trkpt lat="45.7577243" lon="8.9654844"><ele>390.0</ele><time>2026-04-18T08:06:45.375Z</time></trkpt><trkpt lat="45.7577015" lon="8.9655818"><ele>390.0</ele><time>2026-04-18T08:06:51.337Z</time></trkpt><trkpt lat="45.7576826" lon="8.9656816"><ele>390.0</ele><time>2026-04-18T08:06:56.37Z</time></trkpt><trkpt lat="45.7576864" lon="8.9657864"><ele>390.0</ele><time>2026-04-18T08:07:01.196Z</time></trkpt><trkpt lat="45.7576803" lon="8.965881"><ele>390.0</ele><time>2026-04-18T08:07:05.359Z</time></trkpt><trkpt lat="45.7576567" lon="8.9659851"><ele>388.8333333333333</ele><time>2026-04-18T08:07:10.344Z</time></trkpt><trkpt lat="45.7576349" lon="8.9660924"><ele>387.6666666666667</ele><time>2026-04-18T08:07:15.281Z</time></trkpt><trkpt lat="45.7576448" lon="8.9662093"><ele>386.5</ele><time>2026-04-18T08:07:19.357Z</time></trkpt><trkpt lat="45.7576198" lon="8.9662976"><ele>385.33333333333337</ele><time>2026-04-18T08:07:23.287Z</time></trkpt><trkpt lat="45.7575865" lon="8.9663997"><ele>384.1666666666667</ele><time>2026-04-18T08:07:28.327Z</time></trkpt><trkpt lat="45.7575439" lon="8.9664859"><ele>383.0</ele><time>2026-04-18T08:07:33.366Z</time></trkpt><trkpt lat="45.7574849" lon="8.9665548"><ele>383.0</ele><time>2026-04-18T08:07:38.291Z</time></trkpt><trkpt lat="45.7574296" lon="8.9666355"><ele>383.0</ele><time>2026-04-18T08:07:43.331Z</time></trkpt><trkpt lat="45.7573717" lon="8.9666986"><ele>383.0</ele><time>2026-04-18T08:07:48.32Z</time></trkpt><trkpt lat="45.7573905" lon="8.9667871"><ele>383.0</ele><time>2026-04-18T08:07:55.358Z</time></trkpt><trkpt lat="45.7574411" lon="8.9668607"><ele>383.0</ele><time>2026-04-18T08:08:00.283Z</time></trkpt><trkpt lat="45.7575084" lon="8.9668831"><ele>383.0</ele><time>2026-04-18T08:08:05.322Z</time></trkpt><trkpt lat="45.7575627" lon="8.9669323"><ele>383.0</ele><time>2026-04-18T08:08:10.217Z</time></trkpt><trkpt lat="45.7576109" lon="8.9669948"><ele>382.57142857142856</ele><time>2026-04-18T08:08:15.457Z</time></trkpt><trkpt lat="45.7576498" lon="8.9670908"><ele>382.1428571428571</ele><time>2026-04-18T08:08:21.656Z</time></trkpt><trkpt lat="45.7576816" lon="8.9671795"><ele>381.7142857142857</ele><time>2026-04-18T08:08:26.519Z</time></trkpt><trkpt lat="45.7576814" lon="8.9672792"><ele>381.2857142857143</ele><time>2026-04-18T08:08:31.482Z</time></trkpt><trkpt lat="45.7576883" lon="8.9673956"><ele>380.8571428571429</ele><time>2026-04-18T08:08:36.492Z</time></trkpt><trkpt lat="45.7576894" lon="8.9674865"><ele>380.42857142857144</ele><time>2026-04-18T08:08:40.416Z</time></trkpt><trkpt lat="45.7576956" lon="8.9675838"><ele>380.0</ele><time>2026-04-18T08:08:44.38Z</time></trkpt><trkpt lat="45.7577105" lon="8.9676828"><ele>379.7142857142857</ele><time>2026-04-18T08:08:48.377Z</time></trkpt><trkpt lat="45.7577195" lon="8.9677932"><ele>379.42857142857144</ele><time>2026-04-18T08:08:53.341Z</time></trkpt><trkpt lat="45.7577204" lon="8.9679073"><ele>379.1428571428571</ele><time>2026-04-18T08:08:58.299Z</time></trkpt><trkpt lat="45.7577139" lon="8.9679973"><ele>378.8571428571429</ele><time>2026-04-18T08:09:02.299Z</time></trkpt><trkpt lat="45.7577198" lon="8.9680977"><ele>378.57142857142856</ele><time>2026-04-18T08:09:06.317Z</time></trkpt><trkpt lat="45.7577326" lon="8.9681977"><ele>378.2857142857143</ele><time>2026-04-18T08:09:10.346Z</time></trkpt><trkpt lat="45.757749" lon="8.9682936"><ele>378.0</ele><time>2026-04-18T08:09:14.363Z</time></trkpt><trkpt lat="45.7577527" lon="8.9683958"><ele>377.2857142857143</ele><time>2026-04-18T08:09:19.378Z</time></trkpt><trkpt lat="45.7577997" lon="8.9684618"><ele>376.57142857142856</ele><time>2026-04-18T08:09:26.256Z</time></trkpt><trkpt lat="45.7578686" lon="8.9684926"><ele>375.8571428571429</ele><time>2026-04-18T08:09:31.202Z</time></trkpt><trkpt lat="45.7579324" lon="8.9685128"><ele>375.1428571428571</ele><time>2026-04-18T08:09:35.105Z</time></trkpt><trkpt lat="45.758005" lon="8.9685383"><ele>374.42857142857144</ele><time>2026-04-18T08:09:39.104Z</time></trkpt><trkpt lat="45.7580702" lon="8.9685676"><ele>373.7142857142857</ele><time>2026-04-18T08:09:43.079Z</time></trkpt><trkpt lat="45.7581367" lon="8.9686043"><ele>373.0</ele><time>2026-04-18T08:09:49.015Z</time></trkpt><trkpt lat="45.7582017" lon="8.9686037"><ele>373.0</ele><time>2026-04-18T08:09:53.884Z</time></trkpt><trkpt lat="45.7582814" lon="8.9686059"><ele>373.0</ele><time>2026-04-18T08:09:58.372Z</time></trkpt><trkpt lat="45.7583594" lon="8.9686058"><ele>373.0</ele><time>2026-04-18T08:10:02.281Z</time></trkpt><trkpt lat="45.7584334" lon="8.9686034"><ele>373.0</ele><time>2026-04-18T08:10:06.28Z</time></trkpt><trkpt lat="45.7585109" lon="8.9686034"><ele>373.0</ele><time>2026-04-18T08:10:10.285Z</time></trkpt><trkpt lat="45.7585834" lon="8.9685818"><ele>373.0</ele><time>2026-04-18T08:10:15.324Z</time></trkpt><trkpt lat="45.7586508" lon="8.9685532"><ele>373.7142857142857</ele><time>2026-04-18T08:10:19.333Z</time></trkpt><trkpt lat="45.7587179" lon="8.968523"><ele>374.42857142857144</ele><time>2026-04-18T08:10:23.342Z</time></trkpt><trkpt lat="45.758784" lon="8.968496"><ele>375.1428571428571</ele><time>2026-04-18T08:10:27.351Z</time></trkpt><trkpt lat="45.758848" lon="8.96846"><ele>375.8571428571429</ele><time>2026-04-18T08:10:31.36Z</time></trkpt><trkpt lat="45.7589229" lon="8.9684327"><ele>376.57142857142856</ele><time>2026-04-18T08:10:36.286Z</time></trkpt><trkpt lat="45.7590004" lon="8.9684054"><ele>377.2857142857143</ele><time>2026-04-18T08:10:41.381Z</time></trkpt><trkpt lat="45.7590643" lon="8.9683799"><ele>378.0</ele><time>2026-04-18T08:10:46.363Z</time></trkpt><trkpt lat="45.7591361" lon="8.9683467"><ele>381.0</ele><time>2026-04-18T08:10:52.359Z</time></trkpt><trkpt lat="45.7592026" lon="8.9683046"><ele>381.0</ele><time>2026-04-18T08:10:57.404Z</time></trkpt><trkpt lat="45.7592723" lon="8.9682752"><ele>381.0</ele><time>2026-04-18T08:11:02.289Z</time></trkpt><trkpt lat="45.759341" lon="8.9682503"><ele>381.0</ele><time>2026-04-18T08:11:06.298Z</time></trkpt><trkpt lat="45.7594077" lon="8.9682082"><ele>385.0</ele><time>2026-04-18T08:11:11.338Z</time></trkpt><trkpt lat="45.7594695" lon="8.9681721"><ele>385.0</ele><time>2026-04-18T08:11:16.28Z</time></trkpt></trkseg></trk></gpx>